Wetterdaten: aktuell Donnerstag, 02.07.2020 08:53
Datum Zeit Temp. A. Feuchte A. Luftdruck Regen Wind Richtung Richtung Taupunkt Windchill Windben Empfang
02.07.2020 08:53 20,4 C 77 % 1012,0 hPa 0,0 l/m 0,0 km/h (0 Bft) W-SW 247 16,2 C 20,4 C 1,6 km/h (1 Bft) 100,00 %
02.07.2020 08:52 20,4 C 77 % 1012,1 hPa 0,0 l/m 4,8 km/h (1 Bft) O-SO 112 16,2 C 20,4 C 8,0 km/h (2 Bft) 95,65 %
02.07.2020 08:51 20,4 C 77 % 1012,1 hPa 0,0 l/m 3,2 km/h (1 Bft) O 90 16,2 C 20,4 C 4,8 km/h (1 Bft) 95,65 %
02.07.2020 08:50 20,4 C 77 % 1012,0 hPa 0,0 l/m 4,8 km/h (1 Bft) O-SO 112 16,2 C 20,4 C 6,4 km/h (2 Bft) 95,65 %
02.07.2020 08:49 20,4 C 76 % 1012,1 hPa 0,0 l/m 1,6 km/h (1 Bft) O-SO 112 16,0 C 20,4 C 4,8 km/h (1 Bft) 95,65 %
02.07.2020 08:48 20,5 C 76 % 1012,0 hPa 0,0 l/m 8,0 km/h (2 Bft) W-SW 247 16,1 C 19,9 C 12,9 km/h (3 Bft) 95,65 %
02.07.2020 08:47 20,5 C 78 % 1012,0 hPa 0,0 l/m 1,6 km/h (1 Bft) W-NW 292 16,5 C 20,5 C 6,4 km/h (2 Bft) 95,65 %
02.07.2020 08:46 20,5 C 77 % 1012,1 hPa 0,0 l/m 6,4 km/h (2 Bft) S-SW 202 16,3 C 20,5 C 11,3 km/h (2 Bft) 100,00 %
02.07.2020 08:45 20,5 C 78 % 1011,9 hPa 0,0 l/m 6,4 km/h (2 Bft) SW 225 16,5 C 20,5 C 11,3 km/h (2 Bft) 91,30 %
02.07.2020 08:44 20,4 C 79 % 1011,9 hPa 0,0 l/m 1,6 km/h (1 Bft) O 90 16,6 C 20,4 C 3,2 km/h (1 Bft) 100,00 %
02.07.2020 08:43 20,3 C 79 % 1012,0 hPa 0,0 l/m 1,6 km/h (1 Bft) O-NO 67 16,5 C 20,3 C 3,2 km/h (1 Bft) 91,30 %
02.07.2020 08:42 20,2 C 78 % 1012,0 hPa 0,0 l/m 4,8 km/h (1 Bft) S-SO 157 16,2 C 20,2 C 8,0 km/h (2 Bft) 95,65 %
02.07.2020 08:41 20,2 C 80 % 1011,9 hPa 0,0 l/m 3,2 km/h (1 Bft) W-SW 247 16,6 C 20,2 C 8,0 km/h (2 Bft) 100,00 %
02.07.2020 08:40 20,1 C 78 % 1011,9 hPa 0,0 l/m 1,6 km/h (1 Bft) S 180 16,1 C 20,1 C 4,8 km/h (1 Bft) 91,30 %
02.07.2020 08:39 20,0 C 78 % 1011,9 hPa 0,0 l/m 4,8 km/h (1 Bft) SW 225 16,0 C 20,0 C 8,0 km/h (2 Bft) 95,65 %
02.07.2020 08:38 19,9 C 80 % 1011,9 hPa 0,0 l/m 0,0 km/h (0 Bft) SW 225 16,3 C 19,9 C 3,2 km/h (1 Bft) 100,00 %
02.07.2020 08:37 19,9 C 79 % 1011,9 hPa 0,0 l/m 0,0 km/h (0 Bft) O 90 16,1 C 19,9 C 1,6 km/h (1 Bft) 100,00 %
02.07.2020 08:36 19,8 C 78 % 1011,9 hPa 0,0 l/m 3,2 km/h (1 Bft) SW 225 15,8 C 19,8 C 4,8 km/h (1 Bft) 95,65 %
02.07.2020 08:35 19,8 C 78 % 1011,9 hPa 0,0 l/m 0,0 km/h (0 Bft) S-SW 202 15,8 C 19,8 C 1,6 km/h (1 Bft) 95,65 %
02.07.2020 08:34 19,8 C 79 % 1011,9 hPa 0,0 l/m 1,6 km/h (1 Bft) S-SW 202 16,0 C 19,8 C 3,2 km/h (1 Bft) 95,65 %
02.07.2020 08:33 19,7 C 79 % 1011,9 hPa 0,0 l/m 0,0 km/h (0 Bft) SW 225 16,0 C 19,7 C 1,6 km/h (1 Bft) 91,30 %
02.07.2020 08:32 19,7 C 79 % 1011,9 hPa 0,0 l/m 0,0 km/h (0 Bft) SW 225 16,0 C 19,7 C 1,6 km/h (1 Bft) 95,65 %
02.07.2020 08:31 19,6 C 79 % 1011,8 hPa 0,0 l/m 0,0 km/h (0 Bft) W-SW 247 15,9 C 19,6 C 1,6 km/h (1 Bft) 91,30 %
02.07.2020 08:30 19,6 C 78 % 1011,9 hPa 0,0 l/m 4,8 km/h (1 Bft) W-SW 247 15,7 C 19,6 C 6,4 km/h (2 Bft) 91,30 %
02.07.2020 08:29 19,6 C 79 % 1011,9 hPa 0,0 l/m 1,6 km/h (1 Bft) W-SW 247 15,9 C 19,6 C 6,4 km/h (2 Bft) 100,00 %
02.07.2020 08:28 19,5 C 79 % 1011,9 hPa 0,0 l/m 1,6 km/h (1 Bft) S-SW 202 15,8 C 19,5 C 3,2 km/h (1 Bft) 91,30 %
02.07.2020 08:27 19,5 C 79 % 1011,9 hPa 0,0 l/m 3,2 km/h (1 Bft) SW 225 15,8 C 19,5 C 6,4 km/h (2 Bft) 100,00 %
02.07.2020 08:26 19,4 C 80 % 1011,9 hPa 0,0 l/m 0,0 km/h (0 Bft) SW 225 15,9 C 19,4 C 1,6 km/h (1 Bft) 95,65 %
02.07.2020 08:25 19,4 C 79 % 1011,9 hPa 0,0 l/m 3,2 km/h (1 Bft) O-SO 112 15,7 C 19,4 C 6,4 km/h (2 Bft) 100,00 %
02.07.2020 08:24 19,4 C 80 % 1011,9 hPa 0,0 l/m 1,6 km/h (1 Bft) SO 135 15,9 C 19,4 C 3,2 km/h (1 Bft) 100,00 %
02.07.2020 08:23 19,4 C 80 % 1011,9 hPa 0,0 l/m 1,6 km/h (1 Bft) S-SO 157 15,9 C 19,4 C 3,2 km/h (1 Bft) 91,30 %
02.07.2020 08:22 19,3 C 80 % 1011,9 hPa 0,0 l/m 3,2 km/h (1 Bft) O-SO 112 15,8 C 19,3 C 6,4 km/h (2 Bft) 100,00 %
02.07.2020 08:21 19,3 C 80 % 1011,9 hPa 0,0 l/m 3,2 km/h (1 Bft) S-SW 202 15,8 C 19,3 C 4,8 km/h (1 Bft) 100,00 %
02.07.2020 08:20 19,3 C 80 % 1011,9 hPa 0,0 l/m 3,2 km/h (1 Bft) SW 225 15,8 C 19,3 C 6,4 km/h (2 Bft) 100,00 %
02.07.2020 08:19 19,2 C 80 % 1011,9 hPa 0,0 l/m 1,6 km/h (1 Bft) SW 225 15,7 C 19,2 C 3,2 km/h (1 Bft) 100,00 %
02.07.2020 08:18 19,2 C 81 % 1011,9 hPa 0,0 l/m 0,0 km/h (0 Bft) O-SO 112 15,9 C 19,2 C 1,6 km/h (1 Bft) 95,65 %
02.07.2020 08:17 19,1 C 82 % 1011,9 hPa 0,0 l/m 1,6 km/h (1 Bft) SW 225 16,0 C 19,1 C 4,8 km/h (1 Bft) 95,65 %
02.07.2020 08:16 18,9 C 82 % 1011,8 hPa 0,0 l/m 0,0 km/h (0 Bft) SW 225 15,8 C 18,9 C 1,6 km/h (1 Bft) 95,65 %
02.07.2020 08:15 18,9 C 82 % 1011,9 hPa 0,0 l/m 0,0 km/h (0 Bft) SW 225 15,8 C 18,9 C 1,6 km/h (1 Bft) 95,65 %
02.07.2020 08:14 18,8 C 82 % 1011,8 hPa 0,0 l/m 1,6 km/h (1 Bft) O 90 15,7 C 18,8 C 4,8 km/h (1 Bft) 95,65 %
02.07.2020 08:13 18,7 C 82 % 1011,8 hPa 0,0 l/m 1,6 km/h (1 Bft) O-NO 67 15,6 C 18,7 C 3,2 km/h (1 Bft) 95,65 %
02.07.2020 08:12 18,6 C 81 % 1011,8 hPa 0,0 l/m 3,2 km/h (1 Bft) SW 225 15,3 C 18,6 C 6,4 km/h (2 Bft) 100,00 %
02.07.2020 08:11 18,6 C 82 % 1011,8 hPa 0,0 l/m 1,6 km/h (1 Bft) SO 135 15,5 C 18,6 C 3,2 km/h (1 Bft) 95,65 %
02.07.2020 08:10 18,5 C 82 % 1011,8 hPa 0,0 l/m 1,6 km/h (1 Bft) O-SO 112 15,4 C 18,5 C 4,8 km/h (1 Bft) 95,65 %
02.07.2020 08:09 18,4 C 81 % 1011,8 hPa 0,0 l/m 3,2 km/h (1 Bft) S-SW 202 15,1 C 18,4 C 6,4 km/h (2 Bft) 91,30 %
02.07.2020 08:08 18,4 C 81 % 1011,8 hPa 0,0 l/m 4,8 km/h (1 Bft) SW 225 15,1 C 18,4 C 9,7 km/h (2 Bft) 95,65 %
02.07.2020 08:07 18,4 C 82 % 1011,9 hPa 0,0 l/m 4,8 km/h (1 Bft) S-SW 202 15,3 C 18,4 C 8,0 km/h (2 Bft) 91,30 %
02.07.2020 08:06 18,3 C 83 % 1011,8 hPa 0,0 l/m 0,0 km/h (0 Bft) SO 135 15,4 C 18,3 C 1,6 km/h (1 Bft) 91,30 %
02.07.2020 08:05 18,3 C 83 % 1011,6 hPa 0,0 l/m 1,6 km/h (1 Bft) SW 225 15,4 C 18,3 C 4,8 km/h (1 Bft) 100,00 %
02.07.2020 08:04 18,3 C 82 % 1011,8 hPa 0,0 l/m 3,2 km/h (1 Bft) O 90 15,2 C 18,3 C 6,4 km/h (2 Bft) 91,30 %
02.07.2020 08:03 18,2 C 83 % 1011,7 hPa 0,0 l/m 3,2 km/h (1 Bft) S-SO 157 15,3 C 18,2 C 6,4 km/h (2 Bft) 100,00 %
02.07.2020 08:02 18,2 C 82 % 1011,8 hPa 0,0 l/m 4,8 km/h (1 Bft) S-SW 202 15,1 C 18,2 C 11,3 km/h (2 Bft) 91,30 %
02.07.2020 08:01 18,1 C 82 % 1011,8 hPa 0,0 l/m 4,8 km/h (1 Bft) SW 225 15,0 C 18,1 C 16,1 km/h (3 Bft) 100,00 %
02.07.2020 08:00 18,1 C 82 % 1011,7 hPa 0,0 l/m 3,2 km/h (1 Bft) SW 225 15,0 C 18,1 C 8,0 km/h (2 Bft) 100,00 %
02.07.2020 07:59 18,1 C 83 % 1011,7 hPa 0,0 l/m 4,8 km/h (1 Bft) SW 225 15,2 C 18,1 C 8,0 km/h (2 Bft) 95,65 %
02.07.2020 07:58 18,1 C 83 % 1011,7 hPa 0,0 l/m 4,8 km/h (1 Bft) SW 225 15,2 C 18,1 C 12,9 km/h (3 Bft) 95,65 %
02.07.2020 07:57 18,1 C 84 % 1011,7 hPa 0,0 l/m 3,2 km/h (1 Bft) O-NO 67 15,4 C 18,1 C 4,8 km/h (1 Bft) 91,30 %
02.07.2020 07:56 17,9 C 84 % 1011,7 hPa 0,0 l/m 1,6 km/h (1 Bft) O-NO 67 15,2 C 17,9 C 4,8 km/h (1 Bft) 100,00 %
02.07.2020 07:55 17,9 C 83 % 1011,6 hPa 0,0 l/m 4,8 km/h (1 Bft) S-SW 202 15,0 C 17,9 C 9,7 km/h (2 Bft) 100,00 %
02.07.2020 07:54 17,8 C 84 % 1011,6 hPa 0,0 l/m 3,2 km/h (1 Bft) SW 225 15,1 C 17,8 C 6,4 km/h (2 Bft) 95,65 %
02.07.2020 07:53 17,8 C 84 % 1011,7 hPa 0,0 l/m 3,2 km/h (1 Bft) S-SW 202 15,1 C 17,8 C 6,4 km/h (2 Bft) 95,65 %
02.07.2020 07:52 17,7 C 84 % 1011,7 hPa 0,0 l/m 1,6 km/h (1 Bft) SO 135 15,0 C 17,7 C 3,2 km/h (1 Bft) 100,00 %
02.07.2020 07:51 17,6 C 84 % 1011,6 hPa 0,0 l/m 4,8 km/h (1 Bft) S-SW 202 14,9 C 17,6 C 9,7 km/h (2 Bft) 100,00 %
02.07.2020 07:50 17,6 C 84 % 1011,8 hPa 0,0 l/m 6,4 km/h (2 Bft) SW 225 14,9 C 17,6 C 9,7 km/h (2 Bft) 95,65 %
02.07.2020 07:49 17,5 C 85 % 1011,7 hPa 0,0 l/m 3,2 km/h (1 Bft) W-SW 247 14,9 C 17,5 C 6,4 km/h (2 Bft) 95,65 %
02.07.2020 07:48 17,4 C 85 % 1011,7 hPa 0,0 l/m 4,8 km/h (1 Bft) S-SW 202 14,8 C 17,4 C 6,4 km/h (2 Bft) 95,65 %
02.07.2020 07:47 17,4 C 85 % 1011,8 hPa 0,0 l/m 1,6 km/h (1 Bft) SW 225 14,8 C 17,4 C 4,8 km/h (1 Bft) 95,65 %
02.07.2020 07:46 17,3 C 86 % 1011,7 hPa 0,0 l/m 1,6 km/h (1 Bft) SW 225 14,9 C 17,3 C 4,8 km/h (1 Bft) 100,00 %
02.07.2020 07:45 17,2 C 86 % 1011,8 hPa 0,0 l/m 1,6 km/h (1 Bft) SW 225 14,8 C 17,2 C 3,2 km/h (1 Bft) 91,30 %
02.07.2020 07:44 17,2 C 86 % 1011,8 hPa 0,0 l/m 0,0 km/h (0 Bft) SW 225 14,8 C 17,2 C 3,2 km/h (1 Bft) 100,00 %
02.07.2020 07:43 17,1 C 86 % 1011,8 hPa 0,0 l/m 4,8 km/h (1 Bft) SW 225 14,7 C 17,1 C 9,7 km/h (2 Bft) 91,30 %
02.07.2020 07:42 17,1 C 86 % 1011,6 hPa 0,0 l/m 1,6 km/h (1 Bft) S-SW 202 14,7 C 17,1 C 6,4 km/h (2 Bft) 95,65 %
02.07.2020 07:41 17,0 C 86 % 1011,8 hPa 0,0 l/m 1,6 km/h (1 Bft) S-SW 202 14,6 C 17,0 C 4,8 km/h (1 Bft) 100,00 %
02.07.2020 07:40 17,0 C 86 % 1011,7 hPa 0,0 l/m 1,6 km/h (1 Bft) S-SW 202 14,6 C 17,0 C 4,8 km/h (1 Bft) 100,00 %
02.07.2020 07:39 16,9 C 86 % 1011,7 hPa 0,0 l/m 1,6 km/h (1 Bft) O 90 14,5 C 16,9 C 1,6 km/h (1 Bft) 95,65 %
02.07.2020 07:38 16,9 C 86 % 1011,8 hPa 0,0 l/m 3,2 km/h (1 Bft) S-SW 202 14,5 C 16,9 C 6,4 km/h (2 Bft) 91,30 %
02.07.2020 07:37 16,8 C 86 % 1011,6 hPa 0,0 l/m 4,8 km/h (1 Bft) SW 225 14,4 C 16,8 C 8,0 km/h (2 Bft) 95,65 %
02.07.2020 07:36 16,8 C 86 % 1011,6 hPa 0,0 l/m 4,8 km/h (1 Bft) S-SW 202 14,4 C 16,8 C 8,0 km/h (2 Bft) 100,00 %
02.07.2020 07:35 16,8 C 86 % 1011,6 hPa 0,0 l/m 4,8 km/h (1 Bft) S-SW 202 14,4 C 16,8 C 8,0 km/h (2 Bft) 91,30 %
02.07.2020 07:34 16,8 C 87 % 1011,7 hPa 0,0 l/m 1,6 km/h (1 Bft) S-SW 202 14,6 C 16,8 C 3,2 km/h (1 Bft) 95,65 %
02.07.2020 07:33 16,8 C 86 % 1011,7 hPa 0,0 l/m 0,0 km/h (0 Bft) W-SW 247 14,4 C 16,8 C 1,6 km/h (1 Bft) 95,65 %
02.07.2020 07:32 16,8 C 87 % 1011,7 hPa 0,0 l/m 1,6 km/h (1 Bft) W-SW 247 14,6 C 16,8 C 3,2 km/h (1 Bft) 100,00 %
02.07.2020 07:31 16,7 C 86 % 1011,6 hPa 0,0 l/m 1,6 km/h (1 Bft) W-SW 247 14,3 C 16,7 C 4,8 km/h (1 Bft) 100,00 %
02.07.2020 07:30 16,7 C 86 % 1011,7 hPa 0,0 l/m 4,8 km/h (1 Bft) S-SW 202 14,3 C 16,7 C 11,3 km/h (2 Bft) 100,00 %
02.07.2020 07:29 16,7 C 87 % 1011,7 hPa 0,0 l/m 3,2 km/h (1 Bft) S-SW 202 14,5 C 16,7 C 4,8 km/h (1 Bft) 91,30 %
02.07.2020 07:28 16,7 C 87 % 1011,8 hPa 0,0 l/m 3,2 km/h (1 Bft) S-SW 202 14,5 C 16,7 C 8,0 km/h (2 Bft) 100,00 %
02.07.2020 07:27 16,7 C 87 % 1011,7 hPa 0,0 l/m 3,2 km/h (1 Bft) SW 225 14,5 C 16,7 C 6,4 km/h (2 Bft) 95,65 %
02.07.2020 07:26 16,7 C 87 % 1011,7 hPa 0,0 l/m 3,2 km/h (1 Bft) S-SW 202 14,5 C 16,7 C 8,0 km/h (2 Bft) 100,00 %
02.07.2020 07:25 16,6 C 87 % 1011,6 hPa 0,0 l/m 4,8 km/h (1 Bft) SW 225 14,4 C 16,6 C 9,7 km/h (2 Bft) 95,65 %
02.07.2020 07:24 16,6 C 87 % 1011,7 hPa 0,0 l/m 3,2 km/h (1 Bft) SW 225 14,4 C 16,6 C 6,4 km/h (2 Bft) 95,65 %
02.07.2020 07:23 16,6 C 87 % 1011,6 hPa 0,0 l/m 1,6 km/h (1 Bft) S-SW 202 14,4 C 16,6 C 3,2 km/h (1 Bft) 95,65 %
02.07.2020 07:22 16,6 C 87 % 1011,7 hPa 0,0 l/m 4,8 km/h (1 Bft) SW 225 14,4 C 16,6 C 8,0 km/h (2 Bft) 95,65 %
02.07.2020 07:21 16,6 C 87 % 1011,7 hPa 0,0 l/m 1,6 km/h (1 Bft) S 180 14,4 C 16,6 C 4,8 km/h (1 Bft) 91,30 %
02.07.2020 07:20 16,6 C 87 % 1011,7 hPa 0,0 l/m 3,2 km/h (1 Bft) SW 225 14,4 C 16,6 C 6,4 km/h (2 Bft) 95,65 %
02.07.2020 07:19 16,6 C 87 % 1011,7 hPa 0,0 l/m 3,2 km/h (1 Bft) S-SW 202 14,4 C 16,6 C 6,4 km/h (2 Bft) 95,65 %
02.07.2020 07:18 16,6 C 87 % 1011,6 hPa 0,0 l/m 4,8 km/h (1 Bft) S-SW 202 14,4 C 16,6 C 6,4 km/h (2 Bft) 100,00 %
02.07.2020 07:17 16,6 C 87 % 1011,6 hPa 0,0 l/m 4,8 km/h (1 Bft) S-SW 202 14,4 C 16,6 C 8,0 km/h (2 Bft) 100,00 %
02.07.2020 07:16 16,6 C 87 % 1011,7 hPa 0,0 l/m 4,8 km/h (1 Bft) SW 225 14,4 C 16,6 C 9,7 km/h (2 Bft) 95,65 %
02.07.2020 07:15 16,6 C 87 % 1011,6 hPa 0,0 l/m 4,8 km/h (1 Bft) SW 225 14,4 C 16,6 C 9,7 km/h (2 Bft) 95,65 %
02.07.2020 07:14 16,6 C 87 % 1011,6 hPa 0,0 l/m 4,8 km/h (1 Bft) S-SW 202 14,4 C 16,6 C 8,0 km/h (2 Bft) 95,65 %
02.07.2020 07:13 16,6 C 87 % 1011,6 hPa 0,0 l/m 4,8 km/h (1 Bft) S 180 14,4 C 16,6 C 6,4 km/h (2 Bft) 91,30 %
02.07.2020 07:12 16,6 C 87 % 1011,6 hPa 0,0 l/m 3,2 km/h (1 Bft) SW 225 14,4 C 16,6 C 6,4 km/h (2 Bft) 100,00 %
02.07.2020 07:11 16,6 C 87 % 1011,6 hPa 0,0 l/m 3,2 km/h (1 Bft) SW 225 14,4 C 16,6 C 6,4 km/h (2 Bft) 95,65 %
02.07.2020 07:10 16,6 C 87 % 1011,6 hPa 0,0 l/m 1,6 km/h (1 Bft) W-SW 247 14,4 C 16,6 C 6,4 km/h (2 Bft) 95,65 %
02.07.2020 07:09 16,6 C 87 % 1011,7 hPa 0,0 l/m 1,6 km/h (1 Bft) S 180 14,4 C 16,6 C 4,8 km/h (1 Bft) 91,30 %
02.07.2020 07:08 16,6 C 87 % 1011,6 hPa 0,0 l/m 1,6 km/h (1 Bft) SO 135 14,4 C 16,6 C 3,2 km/h (1 Bft) 95,65 %
02.07.2020 07:07 16,6 C 87 % 1011,6 hPa 0,0 l/m 1,6 km/h (1 Bft) S 180 14,4 C 16,6 C 3,2 km/h (1 Bft) 95,65 %
02.07.2020 07:06 16,6 C 87 % 1011,5 hPa 0,0 l/m 0,0 km/h (0 Bft) S-SW 202 14,4 C 16,6 C 3,2 km/h (1 Bft) 100,00 %
02.07.2020 07:05 16,6 C 87 % 1011,5 hPa 0,0 l/m 1,6 km/h (1 Bft) S 180 14,4 C 16,6 C 3,2 km/h (1 Bft) 95,65 %
02.07.2020 07:04 16,6 C 87 % 1011,5 hPa 0,0 l/m 3,2 km/h (1 Bft) SW 225 14,4 C 16,6 C 4,8 km/h (1 Bft) 91,30 %
02.07.2020 07:03 16,6 C 87 % 1011,5 hPa 0,0 l/m 3,2 km/h (1 Bft) SW 225 14,4 C 16,6 C 4,8 km/h (1 Bft) 100,00 %
02.07.2020 07:02 16,6 C 87 % 1011,5 hPa 0,0 l/m 0,0 km/h (0 Bft) SO 135 14,4 C 16,6 C 3,2 km/h (1 Bft) 95,65 %
02.07.2020 07:01 16,5 C 87 % 1011,5 hPa 0,0 l/m 3,2 km/h (1 Bft) S 180 14,3 C 16,5 C 6,4 km/h (2 Bft) 95,65 %
02.07.2020 07:00 16,5 C 87 % 1011,5 hPa 0,0 l/m 1,6 km/h (1 Bft) S 180 14,3 C 16,5 C 4,8 km/h (1 Bft) 95,65 %
02.07.2020 06:59 16,5 C 87 % 1011,6 hPa 0,0 l/m 3,2 km/h (1 Bft) S-SW 202 14,3 C 16,5 C 6,4 km/h (2 Bft) 91,30 %
02.07.2020 06:58 16,5 C 87 % 1011,4 hPa 0,0 l/m 4,8 km/h (1 Bft) S-SW 202 14,3 C 16,5 C 9,7 km/h (2 Bft) 100,00 %
02.07.2020 06:57 16,5 C 87 % 1011,4 hPa 0,0 l/m 3,2 km/h (1 Bft) S-SW 202 14,3 C 16,5 C 6,4 km/h (2 Bft) 95,65 %
02.07.2020 06:56 16,5 C 87 % 1011,5 hPa 0,0 l/m 4,8 km/h (1 Bft) S-SW 202 14,3 C 16,5 C 6,4 km/h (2 Bft) 91,30 %
02.07.2020 06:55 16,5 C 87 % 1011,4 hPa 0,0 l/m 6,4 km/h (2 Bft) SW 225 14,3 C 16,5 C 11,3 km/h (2 Bft) 100,00 %
02.07.2020 06:54 16,5 C 87 % 1011,5 hPa 0,0 l/m 6,4 km/h (2 Bft) SW 225 14,3 C 16,5 C 9,7 km/h (2 Bft) 95,65 %
02.07.2020 06:53 16,5 C 87 % 1011,5 hPa 0,0 l/m 8,0 km/h (2 Bft) SW 225 14,3 C 15,7 C 14,5 km/h (3 Bft) 100,00 %
02.07.2020 06:52 16,6 C 86 % 1011,5 hPa 0,0 l/m 9,7 km/h (2 Bft) SW 225 14,2 C 15,0 C 11,3 km/h (2 Bft) 95,65 %
02.07.2020 06:51 16,6 C 86 % 1011,5 hPa 0,0 l/m 11,3 km/h (2 Bft) SW 225 14,2 C 14,4 C 12,9 km/h (3 Bft) 100,00 %
02.07.2020 06:50 16,6 C 86 % 1011,4 hPa 0,0 l/m 8,0 km/h (2 Bft) S-SW 202 14,2 C 15,8 C 14,5 km/h (3 Bft) 95,65 %
02.07.2020 06:49 16,6 C 87 % 1011,5 hPa 0,0 l/m 4,8 km/h (1 Bft) SW 225 14,4 C 16,6 C 6,4 km/h (2 Bft) 100,00 %
02.07.2020 06:48 16,6 C 86 % 1011,4 hPa 0,0 l/m 6,4 km/h (2 Bft) S-SW 202 14,2 C 16,6 C 9,7 km/h (2 Bft) 91,30 %
02.07.2020 06:47 16,6 C 86 % 1011,4 hPa 0,0 l/m 8,0 km/h (2 Bft) S-SW 202 14,2 C 15,8 C 12,9 km/h (3 Bft) 91,30 %
02.07.2020 06:46 16,6 C 86 % 1011,4 hPa 0,0 l/m 4,8 km/h (1 Bft) S-SW 202 14,2 C 16,6 C 8,0 km/h (2 Bft) 95,65 %
02.07.2020 06:45 16,6 C 86 % 1011,4 hPa 0,0 l/m 6,4 km/h (2 Bft) SW 225 14,2 C 16,6 C 9,7 km/h (2 Bft) 91,30 %
02.07.2020 06:44 16,6 C 86 % 1011,4 hPa 0,0 l/m 6,4 km/h (2 Bft) SW 225 14,2 C 16,6 C 11,3 km/h (2 Bft) 91,30 %
02.07.2020 06:43 16,6 C 86 % 1011,3 hPa 0,0 l/m 6,4 km/h (2 Bft) SW 225 14,2 C 16,6 C 8,0 km/h (2 Bft) 100,00 %
02.07.2020 06:42 16,6 C 86 % 1011,4 hPa 0,0 l/m 8,0 km/h (2 Bft) SW 225 14,2 C 15,8 C 11,3 km/h (2 Bft) 95,65 %
02.07.2020 06:41 16,6 C 86 % 1011,4 hPa 0,0 l/m 8,0 km/h (2 Bft) S-SW 202 14,2 C 15,8 C 11,3 km/h (2 Bft) 100,00 %
02.07.2020 06:40 16,6 C 86 % 1011,3 hPa 0,0 l/m 9,7 km/h (2 Bft) S-SW 202 14,2 C 15,0 C 12,9 km/h (3 Bft) 91,30 %
02.07.2020 06:39 16,6 C 86 % 1011,3 hPa 0,0 l/m 9,7 km/h (2 Bft) SW 225 14,2 C 15,0 C 11,3 km/h (2 Bft) 100,00 %
02.07.2020 06:38 16,6 C 86 % 1011,3 hPa 0,0 l/m 6,4 km/h (2 Bft) SW 225 14,2 C 16,6 C 9,7 km/h (2 Bft) 100,00 %
02.07.2020 06:37 16,6 C 86 % 1011,3 hPa 0,0 l/m 8,0 km/h (2 Bft) SW 225 14,2 C 15,8 C 11,3 km/h (2 Bft) 100,00 %
02.07.2020 06:36 16,6 C 86 % 1011,4 hPa 0,0 l/m 8,0 km/h (2 Bft) SW 225 14,2 C 15,8 C 11,3 km/h (2 Bft) 100,00 %
02.07.2020 06:35 16,6 C 86 % 1011,4 hPa 0,0 l/m 6,4 km/h (2 Bft) SW 225 14,2 C 16,6 C 9,7 km/h (2 Bft) 91,30 %
02.07.2020 06:34 16,6 C 86 % 1011,4 hPa 0,0 l/m 6,4 km/h (2 Bft) SW 225 14,2 C 16,6 C 11,3 km/h (2 Bft) 95,65 %
02.07.2020 06:33 16,6 C 86 % 1011,3 hPa 0,0 l/m 3,2 km/h (1 Bft) SW 225 14,2 C 16,6 C 4,8 km/h (1 Bft) 95,65 %
02.07.2020 06:32 16,6 C 86 % 1011,3 hPa 0,0 l/m 1,6 km/h (1 Bft) SW 225 14,2 C 16,6 C 4,8 km/h (1 Bft) 95,65 %
02.07.2020 06:31 16,6 C 86 % 1011,3 hPa 0,0 l/m 0,0 km/h (0 Bft) SO 135 14,2 C 16,6 C 1,6 km/h (1 Bft) 100,00 %
02.07.2020 06:30 16,6 C 86 % 1011,3 hPa 0,0 l/m 3,2 km/h (1 Bft) S-SW 202 14,2 C 16,6 C 4,8 km/h (1 Bft) 91,30 %
02.07.2020 06:29 16,6 C 86 % 1011,3 hPa 0,0 l/m 1,6 km/h (1 Bft) SW 225 14,2 C 16,6 C 4,8 km/h (1 Bft) 100,00 %
02.07.2020 06:28 16,6 C 86 % 1011,3 hPa 0,0 l/m 1,6 km/h (1 Bft) S 180 14,2 C 16,6 C 4,8 km/h (1 Bft) 91,30 %
02.07.2020 06:27 16,6 C 86 % 1011,3 hPa 0,0 l/m 3,2 km/h (1 Bft) S-SW 202 14,2 C 16,6 C 4,8 km/h (1 Bft) 100,00 %
02.07.2020 06:26 16,7 C 85 % 1011,3 hPa 0,0 l/m 4,8 km/h (1 Bft) SW 225 14,2 C 16,7 C 9,7 km/h (2 Bft) 100,00 %
02.07.2020 06:25 16,7 C 86 % 1011,2 hPa 0,0 l/m 3,2 km/h (1 Bft) SW 225 14,3 C 16,7 C 6,4 km/h (2 Bft) 95,65 %
02.07.2020 06:24 16,7 C 86 % 1011,3 hPa 0,0 l/m 1,6 km/h (1 Bft) O 90 14,3 C 16,7 C 6,4 km/h (2 Bft) 100,00 %
02.07.2020 06:23 16,8 C 86 % 1011,1 hPa 0,0 l/m 0,0 km/h (0 Bft) SO 135 14,4 C 16,8 C 1,6 km/h (1 Bft) 95,65 %
02.07.2020 06:22 16,7 C 85 % 1011,0 hPa 0,0 l/m 0,0 km/h (0 Bft) SW 225 14,2 C 16,7 C 1,6 km/h (1 Bft) 100,00 %
02.07.2020 06:21 16,8 C 86 % 1011,2 hPa 0,0 l/m 3,2 km/h (1 Bft) SO 135 14,4 C 16,8 C 4,8 km/h (1 Bft) 95,65 %
02.07.2020 06:20 16,8 C 85 % 1011,1 hPa 0,0 l/m 1,6 km/h (1 Bft) S-SW 202 14,3 C 16,8 C 4,8 km/h (1 Bft) 95,65 %
02.07.2020 06:19 16,8 C 86 % 1011,1 hPa 0,0 l/m 0,0 km/h (0 Bft) O-SO 112 14,4 C 16,8 C 1,6 km/h (1 Bft) 100,00 %
02.07.2020 06:18 16,8 C 85 % 1011,0 hPa 0,0 l/m 1,6 km/h (1 Bft) NO 45 14,3 C 16,8 C 1,6 km/h (1 Bft) 100,00 %
02.07.2020 06:17 16,8 C 86 % 1011,0 hPa 0,0 l/m 3,2 km/h (1 Bft) O-SO 112 14,4 C 16,8 C 4,8 km/h (1 Bft) 100,00 %
02.07.2020 06:16 16,8 C 86 % 1011,0 hPa 0,0 l/m 3,2 km/h (1 Bft) O-SO 112 14,4 C 16,8 C 4,8 km/h (1 Bft) 91,30 %
02.07.2020 06:15 16,7 C 86 % 1011,0 hPa 0,0 l/m 3,2 km/h (1 Bft) O 90 14,3 C 16,7 C 8,0 km/h (2 Bft) 91,30 %
02.07.2020 06:14 16,7 C 86 % 1011,0 hPa 0,0 l/m 0,0 km/h (0 Bft) O-NO 67 14,3 C 16,7 C 1,6 km/h (1 Bft) 100,00 %
02.07.2020 06:13 16,6 C 86 % 1011,0 hPa 0,0 l/m 1,6 km/h (1 Bft) O-NO 67 14,2 C 16,6 C 1,6 km/h (1 Bft) 95,65 %
02.07.2020 06:12 16,6 C 86 % 1010,9 hPa 0,0 l/m 1,6 km/h (1 Bft) O-SO 112 14,2 C 16,6 C 3,2 km/h (1 Bft) 95,65 %
02.07.2020 06:11 16,6 C 86 % 1010,9 hPa 0,0 l/m 0,0 km/h (0 Bft) N 0 14,2 C 16,6 C 0,0 km/h (0 Bft) 91,30 %
02.07.2020 06:10 16,4 C 87 % 1010,9 hPa 0,0 l/m 0,0 km/h (0 Bft) N 0 14,2 C 16,4 C 0,0 km/h (0 Bft) 95,65 %
02.07.2020 06:09 16,4 C 86 % 1010,8 hPa 0,0 l/m 0,0 km/h (0 Bft) N 0 14,1 C 16,4 C 0,0 km/h (0 Bft) 91,30 %
02.07.2020 06:08 16,4 C 86 % 1010,9 hPa 0,0 l/m 0,0 km/h (0 Bft) SW 225 14,1 C 16,4 C 1,6 km/h (1 Bft) 91,30 %
02.07.2020 06:07 16,3 C 86 % 1010,9 hPa 0,0 l/m 0,0 km/h (0 Bft) SW 225 14,0 C 16,3 C 1,6 km/h (1 Bft) 100,00 %
02.07.2020 06:06 16,3 C 86 % 1010,9 hPa 0,0 l/m 1,6 km/h (1 Bft) SW 225 14,0 C 16,3 C 4,8 km/h (1 Bft) 95,65 %
02.07.2020 06:05 16,3 C 86 % 1010,9 hPa 0,0 l/m 1,6 km/h (1 Bft) SW 225 14,0 C 16,3 C 3,2 km/h (1 Bft) 95,65 %
02.07.2020 06:04 16,3 C 87 % 1010,9 hPa 0,0 l/m 0,0 km/h (0 Bft) N 0 14,1 C 16,3 C 0,0 km/h (0 Bft) 100,00 %
02.07.2020 06:03 16,3 C 86 % 1010,7 hPa 0,0 l/m 0,0 km/h (0 Bft) N 0 14,0 C 16,3 C 0,0 km/h (0 Bft) 95,65 %
02.07.2020 06:02 16,3 C 86 % 1010,8 hPa 0,0 l/m 0,0 km/h (0 Bft) SW 225 14,0 C 16,3 C 1,6 km/h (1 Bft) 100,00 %
02.07.2020 06:01 16,2 C 87 % 1010,8 hPa 0,0 l/m 0,0 km/h (0 Bft) S-SW 202 14,0 C 16,2 C 1,6 km/h (1 Bft) 91,30 %
02.07.2020 06:00 16,2 C 87 % 1010,8 hPa 0,0 l/m 0,0 km/h (0 Bft) N 0 14,0 C 16,2 C 0,0 km/h (0 Bft) 95,65 %
02.07.2020 05:59 16,2 C 87 % 1010,9 hPa 0,0 l/m 0,0 km/h (0 Bft) N 0 14,0 C 16,2 C 0,0 km/h (0 Bft) 91,30 %
02.07.2020 05:58 16,2 C 87 % 1010,8 hPa 0,0 l/m 0,0 km/h (0 Bft) O 90 14,0 C 16,2 C 1,6 km/h (1 Bft) 95,65 %
02.07.2020 05:57 16,2 C 87 % 1010,8 hPa 0,0 l/m 0,0 km/h (0 Bft) N 0 14,0 C 16,2 C 0,0 km/h (0 Bft) 95,65 %
02.07.2020 05:56 16,2 C 87 % 1010,8 hPa 0,0 l/m 0,0 km/h (0 Bft) S-SW 202 14,0 C 16,2 C 1,6 km/h (1 Bft) 95,65 %
02.07.2020 05:55 16,2 C 87 % 1010,7 hPa 0,0 l/m 1,6 km/h (1 Bft) S-SO 157 14,0 C 16,2 C 3,2 km/h (1 Bft) 95,65 %
02.07.2020 05:54 16,2 C 87 % 1010,7 hPa 0,0 l/m 1,6 km/h (1 Bft) SW 225 14,0 C 16,2 C 3,2 km/h (1 Bft) 91,30 %
02.07.2020 05:53 16,1 C 87 % 1010,7 hPa 0,0 l/m 1,6 km/h (1 Bft) S-SW 202 13,9 C 16,1 C 4,8 km/h (1 Bft) 95,65 %
02.07.2020 05:52 16,1 C 87 % 1010,7 hPa 0,0 l/m 0,0 km/h (0 Bft) W-SW 247 13,9 C 16,1 C 1,6 km/h (1 Bft) 95,65 %
02.07.2020 05:51 16,1 C 87 % 1010,7 hPa 0,0 l/m 1,6 km/h (1 Bft) S-SW 202 13,9 C 16,1 C 3,2 km/h (1 Bft) 95,65 %
02.07.2020 05:50 16,0 C 87 % 1010,7 hPa 0,0 l/m 3,2 km/h (1 Bft) O-SO 112 13,8 C 16,0 C 8,0 km/h (2 Bft) 100,00 %
02.07.2020 05:49 15,9 C 87 % 1010,7 hPa 0,0 l/m 1,6 km/h (1 Bft) S 180 13,7 C 15,9 C 3,2 km/h (1 Bft) 95,65 %
02.07.2020 05:48 15,9 C 87 % 1010,6 hPa 0,0 l/m 0,0 km/h (0 Bft) S-SO 157 13,7 C 15,9 C 1,6 km/h (1 Bft) 100,00 %
02.07.2020 05:47 15,9 C 87 % 1010,5 hPa 0,0 l/m 0,0 km/h (0 Bft) N 0 13,7 C 15,9 C 0,0 km/h (0 Bft) 91,30 %
02.07.2020 05:46 15,8 C 87 % 1010,6 hPa 0,0 l/m 0,0 km/h (0 Bft) S-SO 157 13,6 C 15,8 C 3,2 km/h (1 Bft) 95,65 %
02.07.2020 05:45 15,8 C 88 % 1010,6 hPa 0,0 l/m 1,6 km/h (1 Bft) SO 135 13,8 C 15,8 C 3,2 km/h (1 Bft) 95,65 %
02.07.2020 05:44 15,8 C 87 % 1010,6 hPa 0,0 l/m 1,6 km/h (1 Bft) S-SO 157 13,6 C 15,8 C 3,2 km/h (1 Bft) 91,30 %
02.07.2020 05:43 15,8 C 87 % 1010,6 hPa 0,0 l/m 0,0 km/h (0 Bft) S-SO 157 13,6 C 15,8 C 3,2 km/h (1 Bft) 100,00 %
02.07.2020 05:42 15,8 C 87 % 1010,6 hPa 0,0 l/m 0,0 km/h (0 Bft) N 0 13,6 C 15,8 C 0,0 km/h (0 Bft) 95,65 %
02.07.2020 05:41 15,8 C 87 % 1010,5 hPa 0,0 l/m 0,0 km/h (0 Bft) N 0 13,6 C 15,8 C 0,0 km/h (0 Bft) 100,00 %
02.07.2020 05:40 15,9 C 87 % 1010,5 hPa 0,0 l/m 1,6 km/h (1 Bft) SW 225 13,7 C 15,9 C 4,8 km/h (1 Bft) 95,65 %
02.07.2020 05:39 15,9 C 87 % 1010,5 hPa 0,0 l/m 3,2 km/h (1 Bft) SW 225 13,7 C 15,9 C 4,8 km/h (1 Bft) 95,65 %
02.07.2020 05:38 15,9 C 86 % 1010,4 hPa 0,0 l/m 0,0 km/h (0 Bft) W-SW 247 13,6 C 15,9 C 3,2 km/h (1 Bft) 100,00 %
02.07.2020 05:37 15,9 C 86 % 1010,3 hPa 0,0 l/m 1,6 km/h (1 Bft) SW 225 13,6 C 15,9 C 3,2 km/h (1 Bft) 91,30 %
02.07.2020 05:36 15,9 C 86 % 1010,4 hPa 0,0 l/m 0,0 km/h (0 Bft) N 0 13,6 C 15,9 C 0,0 km/h (0 Bft) 100,00 %
02.07.2020 05:35 15,9 C 86 % 1010,4 hPa 0,0 l/m 0,0 km/h (0 Bft) N 0 13,6 C 15,9 C 0,0 km/h (0 Bft) 95,65 %
02.07.2020 05:34 16,0 C 86 % 1010,4 hPa 0,0 l/m 0,0 km/h (0 Bft) N 0 13,7 C 16,0 C 0,0 km/h (0 Bft) 91,30 %
02.07.2020 05:33 16,0 C 86 % 1010,4 hPa 0,0 l/m 0,0 km/h (0 Bft) S 180 13,7 C 16,0 C 1,6 km/h (1 Bft) 100,00 %
02.07.2020 05:32 16,0 C 86 % 1010,4 hPa 0,0 l/m 3,2 km/h (1 Bft) S-SW 202 13,7 C 16,0 C 4,8 km/h (1 Bft) 91,30 %
02.07.2020 05:31 16,0 C 86 % 1010,4 hPa 0,0 l/m 1,6 km/h (1 Bft) W-SW 247 13,7 C 16,0 C 4,8 km/h (1 Bft) 100,00 %
02.07.2020 05:30 16,1 C 86 % 1010,4 hPa 0,0 l/m 0,0 km/h (0 Bft) S-SW 202 13,8 C 16,1 C 1,6 km/h (1 Bft) 100,00 %
02.07.2020 05:29 16,1 C 86 % 1010,4 hPa 0,0 l/m 0,0 km/h (0 Bft) SW 225 13,8 C 16,1 C 1,6 km/h (1 Bft) 100,00 %
02.07.2020 05:28 16,0 C 86 % 1010,4 hPa 0,0 l/m 1,6 km/h (1 Bft) SW 225 13,7 C 16,0 C 4,8 km/h (1 Bft) 91,30 %
02.07.2020 05:27 16,1 C 86 % 1010,4 hPa 0,0 l/m 1,6 km/h (1 Bft) SW 225 13,8 C 16,1 C 3,2 km/h (1 Bft) 91,30 %
02.07.2020 05:26 16,1 C 86 % 1010,4 hPa 0,0 l/m 3,2 km/h (1 Bft) SW 225 13,8 C 16,1 C 4,8 km/h (1 Bft) 95,65 %
02.07.2020 05:25 16,1 C 86 % 1010,3 hPa 0,0 l/m 3,2 km/h (1 Bft) SW 225 13,8 C 16,1 C 4,8 km/h (1 Bft) 100,00 %
02.07.2020 05:24 16,1 C 85 % 1010,2 hPa 0,0 l/m 0,0 km/h (0 Bft) SW 225 13,6 C 16,1 C 3,2 km/h (1 Bft) 100,00 %
02.07.2020 05:23 16,1 C 85 % 1010,2 hPa 0,0 l/m 0,0 km/h (0 Bft) S-SW 202 13,6 C 16,1 C 3,2 km/h (1 Bft) 91,30 %
02.07.2020 05:22 16,1 C 85 % 1010,2 hPa 0,0 l/m 0,0 km/h (0 Bft) SW 225 13,6 C 16,1 C 1,6 km/h (1 Bft) 91,30 %
02.07.2020 05:21 16,2 C 85 % 1010,2 hPa 0,0 l/m 1,6 km/h (1 Bft) SW 225 13,7 C 16,2 C 3,2 km/h (1 Bft) 95,65 %
02.07.2020 05:20 16,2 C 85 % 1010,3 hPa 0,0 l/m 1,6 km/h (1 Bft) SW 225 13,7 C 16,2 C 3,2 km/h (1 Bft) 91,30 %
02.07.2020 05:19 16,3 C 85 % 1010,3 hPa 0,0 l/m 1,6 km/h (1 Bft) SW 225 13,8 C 16,3 C 3,2 km/h (1 Bft) 100,00 %
02.07.2020 05:18 16,3 C 85 % 1010,3 hPa 0,0 l/m 1,6 km/h (1 Bft) SW 225 13,8 C 16,3 C 3,2 km/h (1 Bft) 95,65 %
02.07.2020 05:17 16,3 C 85 % 1010,2 hPa 0,0 l/m 1,6 km/h (1 Bft) SW 225 13,8 C 16,3 C 3,2 km/h (1 Bft) 100,00 %
02.07.2020 05:16 16,3 C 85 % 1010,3 hPa 0,0 l/m 1,6 km/h (1 Bft) SW 225 13,8 C 16,3 C 3,2 km/h (1 Bft) 95,65 %
02.07.2020 05:15 16,3 C 85 % 1010,2 hPa 0,0 l/m 3,2 km/h (1 Bft) SW 225 13,8 C 16,3 C 4,8 km/h (1 Bft) 95,65 %
02.07.2020 05:14 16,3 C 85 % 1010,3 hPa 0,0 l/m 3,2 km/h (1 Bft) SW 225 13,8 C 16,3 C 4,8 km/h (1 Bft) 100,00 %
02.07.2020 05:13 16,3 C 85 % 1010,1 hPa 0,0 l/m 4,8 km/h (1 Bft) SW 225 13,8 C 16,3 C 6,4 km/h (2 Bft) 95,65 %
02.07.2020 05:12 16,2 C 85 % 1010,1 hPa 0,0 l/m 4,8 km/h (1 Bft) SW 225 13,7 C 16,2 C 6,4 km/h (2 Bft) 95,65 %
02.07.2020 05:11 16,2 C 85 % 1010,2 hPa 0,0 l/m 4,8 km/h (1 Bft) SW 225 13,7 C 16,2 C 6,4 km/h (2 Bft) 95,65 %
02.07.2020 05:10 16,1 C 85 % 1010,1 hPa 0,0 l/m 4,8 km/h (1 Bft) SW 225 13,6 C 16,1 C 6,4 km/h (2 Bft) 100,00 %
02.07.2020 05:09 16,1 C 86 % 1010,1 hPa 0,0 l/m 4,8 km/h (1 Bft) SW 225 13,8 C 16,1 C 6,4 km/h (2 Bft) 95,65 %
02.07.2020 05:08 16,0 C 86 % 1010,0 hPa 0,0 l/m 3,2 km/h (1 Bft) SW 225 13,7 C 16,0 C 4,8 km/h (1 Bft) 91,30 %
02.07.2020 05:07 16,0 C 86 % 1010,0 hPa 0,0 l/m 0,0 km/h (0 Bft) SW 225 13,7 C 16,0 C 1,6 km/h (1 Bft) 95,65 %
02.07.2020 05:06 16,0 C 86 % 1010,1 hPa 0,0 l/m 0,0 km/h (0 Bft) SW 225 13,7 C 16,0 C 1,6 km/h (1 Bft) 91,30 %
02.07.2020 05:05 16,0 C 86 % 1010,0 hPa 0,0 l/m 1,6 km/h (1 Bft) SW 225 13,7 C 16,0 C 1,6 km/h (1 Bft) 95,65 %
02.07.2020 05:04 15,9 C 86 % 1010,0 hPa 0,0 l/m 3,2 km/h (1 Bft) S-SW 202 13,6 C 15,9 C 6,4 km/h (2 Bft) 95,65 %
02.07.2020 05:03 15,9 C 86 % 1010,0 hPa 0,0 l/m 4,8 km/h (1 Bft) SW 225 13,6 C 15,9 C 6,4 km/h (2 Bft) 91,30 %
02.07.2020 05:02 15,9 C 86 % 1010,1 hPa 0,0 l/m 4,8 km/h (1 Bft) SW 225 13,6 C 15,9 C 6,4 km/h (2 Bft) 100,00 %
02.07.2020 05:01 15,9 C 87 % 1010,0 hPa 0,0 l/m 3,2 km/h (1 Bft) SW 225 13,7 C 15,9 C 4,8 km/h (1 Bft) 100,00 %
02.07.2020 05:00 15,9 C 86 % 1010,0 hPa 0,0 l/m 1,6 km/h (1 Bft) SW 225 13,6 C 15,9 C 3,2 km/h (1 Bft) 100,00 %
02.07.2020 04:59 15,9 C 87 % 1010,1 hPa 0,0 l/m 3,2 km/h (1 Bft) SW 225 13,7 C 15,9 C 3,2 km/h (1 Bft) 91,30 %
02.07.2020 04:58 15,8 C 87 % 1010,0 hPa 0,0 l/m 0,0 km/h (0 Bft) SW 225 13,6 C 15,8 C 3,2 km/h (1 Bft) 91,30 %
02.07.2020 04:57 15,9 C 87 % 1010,0 hPa 0,0 l/m 1,6 km/h (1 Bft) SW 225 13,7 C 15,9 C 3,2 km/h (1 Bft) 100,00 %
02.07.2020 04:56 15,8 C 87 % 1010,0 hPa 0,0 l/m 1,6 km/h (1 Bft) SW 225 13,6 C 15,8 C 4,8 km/h (1 Bft) 91,30 %
02.07.2020 04:55 15,8 C 87 % 1010,1 hPa 0,0 l/m 0,0 km/h (0 Bft) O 90 13,6 C 15,8 C 1,6 km/h (1 Bft) 100,00 %
02.07.2020 04:54 15,8 C 87 % 1010,1 hPa 0,0 l/m 0,0 km/h (0 Bft) S-SO 157 13,6 C 15,8 C 1,6 km/h (1 Bft) 91,30 %
02.07.2020 04:53 15,9 C 87 % 1010,0 hPa 0,0 l/m 1,6 km/h (1 Bft) S-SO 157 13,7 C 15,9 C 3,2 km/h (1 Bft) 91,30 %
02.07.2020 04:52 15,9 C 86 % 1010,0 hPa 0,0 l/m 1,6 km/h (1 Bft) S-SO 157 13,6 C 15,9 C 3,2 km/h (1 Bft) 100,00 %
02.07.2020 04:51 15,9 C 86 % 1010,0 hPa 0,0 l/m 1,6 km/h (1 Bft) SW 225 13,6 C 15,9 C 3,2 km/h (1 Bft) 100,00 %
02.07.2020 04:50 16,0 C 86 % 1010,0 hPa 0,0 l/m 1,6 km/h (1 Bft) S-SW 202 13,7 C 16,0 C 1,6 km/h (1 Bft) 100,00 %
02.07.2020 04:49 16,1 C 86 % 1010,0 hPa 0,0 l/m 0,0 km/h (0 Bft) N 0 13,8 C 16,1 C 0,0 km/h (0 Bft) 91,30 %
02.07.2020 04:48 16,1 C 85 % 1010,0 hPa 0,0 l/m 0,0 km/h (0 Bft) N 0 13,6 C 16,1 C 0,0 km/h (0 Bft) 95,65 %
02.07.2020 04:47 16,1 C 85 % 1010,0 hPa 0,0 l/m 0,0 km/h (0 Bft) SW 225 13,6 C 16,1 C 1,6 km/h (1 Bft) 95,65 %
02.07.2020 04:46 16,2 C 85 % 1010,0 hPa 0,0 l/m 1,6 km/h (1 Bft) SW 225 13,7 C 16,2 C 4,8 km/h (1 Bft) 100,00 %
02.07.2020 04:45 16,2 C 85 % 1010,0 hPa 0,0 l/m 1,6 km/h (1 Bft) SW 225 13,7 C 16,2 C 4,8 km/h (1 Bft) 100,00 %
02.07.2020 04:44 16,2 C 85 % 1009,9 hPa 0,0 l/m 1,6 km/h (1 Bft) SW 225 13,7 C 16,2 C 4,8 km/h (1 Bft) 100,00 %
02.07.2020 04:43 16,2 C 85 % 1009,8 hPa 0,0 l/m 0,0 km/h (0 Bft) S 180 13,7 C 16,2 C 1,6 km/h (1 Bft) 100,00 %
02.07.2020 04:42 16,3 C 85 % 1009,9 hPa 0,0 l/m 0,0 km/h (0 Bft) S-SW 202 13,8 C 16,3 C 1,6 km/h (1 Bft) 95,65 %
02.07.2020 04:41 16,3 C 85 % 1009,9 hPa 0,0 l/m 0,0 km/h (0 Bft) O-SO 112 13,8 C 16,3 C 3,2 km/h (1 Bft) 95,65 %
02.07.2020 04:40 16,3 C 85 % 1009,9 hPa 0,0 l/m 0,0 km/h (0 Bft) SO 135 13,8 C 16,3 C 3,2 km/h (1 Bft) 100,00 %
02.07.2020 04:39 16,3 C 85 % 1009,9 hPa 0,0 l/m 3,2 km/h (1 Bft) S 180 13,8 C 16,3 C 4,8 km/h (1 Bft) 95,65 %
02.07.2020 04:38 16,3 C 85 % 1009,9 hPa 0,0 l/m 1,6 km/h (1 Bft) S-SW 202 13,8 C 16,3 C 3,2 km/h (1 Bft) 95,65 %
02.07.2020 04:37 16,4 C 85 % 1009,9 hPa 0,0 l/m 0,0 km/h (0 Bft) S-SW 202 13,9 C 16,4 C 1,6 km/h (1 Bft) 91,30 %
02.07.2020 04:36 16,4 C 85 % 1009,9 hPa 0,0 l/m 0,0 km/h (0 Bft) S-SO 157 13,9 C 16,4 C 1,6 km/h (1 Bft) 95,65 %
02.07.2020 04:35 16,4 C 85 % 1009,8 hPa 0,0 l/m 0,0 km/h (0 Bft) O-SO 112 13,9 C 16,4 C 1,6 km/h (1 Bft) 91,30 %
02.07.2020 04:34 16,5 C 84 % 1009,8 hPa 0,0 l/m 0,0 km/h (0 Bft) N 0 13,8 C 16,5 C 0,0 km/h (0 Bft) 91,30 %
02.07.2020 04:33 16,6 C 84 % 1009,8 hPa 0,0 l/m 1,6 km/h (1 Bft) S-SO 157 13,9 C 16,6 C 3,2 km/h (1 Bft) 100,00 %
02.07.2020 04:32 16,6 C 84 % 1009,8 hPa 0,0 l/m 0,0 km/h (0 Bft) N 0 13,9 C 16,6 C 0,0 km/h (0 Bft) 95,65 %
02.07.2020 04:31 16,6 C 84 % 1009,9 hPa 0,0 l/m 1,6 km/h (1 Bft) O-SO 112 13,9 C 16,6 C 4,8 km/h (1 Bft) 95,65 %
02.07.2020 04:30 16,6 C 84 % 1009,9 hPa 0,0 l/m 0,0 km/h (0 Bft) N 0 13,9 C 16,6 C 0,0 km/h (0 Bft) 95,65 %
02.07.2020 04:29 16,6 C 84 % 1009,8 hPa 0,0 l/m 0,0 km/h (0 Bft) S-SO 157 13,9 C 16,6 C 1,6 km/h (1 Bft) 91,30 %
02.07.2020 04:28 16,7 C 84 % 1009,8 hPa 0,0 l/m 0,0 km/h (0 Bft) N 0 14,0 C 16,7 C 0,0 km/h (0 Bft) 100,00 %
02.07.2020 04:27 16,7 C 84 % 1009,9 hPa 0,0 l/m 0,0 km/h (0 Bft) SO 135 14,0 C 16,7 C 1,6 km/h (1 Bft) 95,65 %
02.07.2020 04:26 16,7 C 84 % 1009,8 hPa 0,0 l/m 0,0 km/h (0 Bft) SO 135 14,0 C 16,7 C 3,2 km/h (1 Bft) 100,00 %
02.07.2020 04:25 16,7 C 83 % 1009,7 hPa 0,0 l/m 0,0 km/h (0 Bft) N 0 13,8 C 16,7 C 0,0 km/h (0 Bft) 95,65 %
02.07.2020 04:24 16,8 C 83 % 1009,8 hPa 0,0 l/m 0,0 km/h (0 Bft) N 0 13,9 C 16,8 C 0,0 km/h (0 Bft) 100,00 %
02.07.2020 04:23 16,8 C 83 % 1009,7 hPa 0,0 l/m 1,6 km/h (1 Bft) SO 135 13,9 C 16,8 C 3,2 km/h (1 Bft) 91,30 %
02.07.2020 04:22 16,8 C 83 % 1009,7 hPa 0,0 l/m 1,6 km/h (1 Bft) O-SO 112 13,9 C 16,8 C 3,2 km/h (1 Bft) 100,00 %
02.07.2020 04:21 16,8 C 83 % 1009,8 hPa 0,0 l/m 0,0 km/h (0 Bft) N 0 13,9 C 16,8 C 0,0 km/h (0 Bft) 100,00 %
02.07.2020 04:20 16,9 C 83 % 1009,7 hPa 0,0 l/m 0,0 km/h (0 Bft) N 0 14,0 C 16,9 C 0,0 km/h (0 Bft) 91,30 %
02.07.2020 04:19 16,9 C 83 % 1009,8 hPa 0,0 l/m 0,0 km/h (0 Bft) S-SW 202 14,0 C 16,9 C 1,6 km/h (1 Bft) 100,00 %
02.07.2020 04:18 17,0 C 82 % 1009,8 hPa 0,0 l/m 0,0 km/h (0 Bft) S-SW 202 13,9 C 17,0 C 3,2 km/h (1 Bft) 91,30 %
02.07.2020 04:17 17,1 C 82 % 1009,7 hPa 0,0 l/m 1,6 km/h (1 Bft) S-SO 157 14,0 C 17,1 C 3,2 km/h (1 Bft) 91,30 %
02.07.2020 04:16 17,1 C 82 % 1009,7 hPa 0,0 l/m 1,6 km/h (1 Bft) SO 135 14,0 C 17,1 C 4,8 km/h (1 Bft) 100,00 %
02.07.2020 04:15 17,2 C 82 % 1009,6 hPa 0,0 l/m 0,0 km/h (0 Bft) SO 135 14,1 C 17,2 C 1,6 km/h (1 Bft) 100,00 %
02.07.2020 04:14 17,2 C 81 % 1009,6 hPa 0,0 l/m 1,6 km/h (1 Bft) SO 135 13,9 C 17,2 C 4,8 km/h (1 Bft) 100,00 %
02.07.2020 04:13 17,3 C 81 % 1009,5 hPa 0,0 l/m 1,6 km/h (1 Bft) SO 135 14,0 C 17,3 C 3,2 km/h (1 Bft) 91,30 %
02.07.2020 04:12 17,4 C 81 % 1009,6 hPa 0,0 l/m 0,0 km/h (0 Bft) N 0 14,1 C 17,4 C 0,0 km/h (0 Bft) 95,65 %
02.07.2020 04:11 17,4 C 80 % 1009,7 hPa 0,0 l/m 0,0 km/h (0 Bft) SW 225 13,9 C 17,4 C 1,6 km/h (1 Bft) 91,30 %
02.07.2020 04:10 17,4 C 80 % 1009,6 hPa 0,0 l/m 0,0 km/h (0 Bft) S-SW 202 13,9 C 17,4 C 1,6 km/h (1 Bft) 91,30 %
02.07.2020 04:09 17,5 C 80 % 1009,7 hPa 0,0 l/m 3,2 km/h (1 Bft) S-SW 202 14,0 C 17,5 C 6,4 km/h (2 Bft) 100,00 %
02.07.2020 04:08 17,6 C 80 % 1009,7 hPa 0,0 l/m 3,2 km/h (1 Bft) SW 225 14,1 C 17,6 C 6,4 km/h (2 Bft) 91,30 %
02.07.2020 04:07 17,6 C 80 % 1009,7 hPa 0,0 l/m 1,6 km/h (1 Bft) W-SW 247 14,1 C 17,6 C 3,2 km/h (1 Bft) 100,00 %
02.07.2020 04:06 17,7 C 80 % 1009,6 hPa 0,0 l/m 0,0 km/h (0 Bft) O-NO 67 14,2 C 17,7 C 1,6 km/h (1 Bft) 91,30 %
02.07.2020 04:05 17,7 C 80 % 1009,7 hPa 0,0 l/m 0,0 km/h (0 Bft) N 0 14,2 C 17,7 C 0,0 km/h (0 Bft) 95,65 %
02.07.2020 04:04 17,8 C 79 % 1009,7 hPa 0,0 l/m 0,0 km/h (0 Bft) SW 225 14,1 C 17,8 C 3,2 km/h (1 Bft) 100,00 %
02.07.2020 04:03 17,8 C 79 % 1009,6 hPa 0,0 l/m 1,6 km/h (1 Bft) S-SW 202 14,1 C 17,8 C 3,2 km/h (1 Bft) 95,65 %
02.07.2020 04:02 17,9 C 79 % 1009,7 hPa 0,0 l/m 3,2 km/h (1 Bft) S-SW 202 14,2 C 17,9 C 6,4 km/h (2 Bft) 95,65 %
02.07.2020 04:01 17,9 C 79 % 1009,7 hPa 0,0 l/m 1,6 km/h (1 Bft) NO 45 14,2 C 17,9 C 3,2 km/h (1 Bft) 91,30 %
02.07.2020 04:00 18,0 C 79 % 1009,7 hPa 0,0 l/m 3,2 km/h (1 Bft) S 180 14,3 C 18,0 C 6,4 km/h (2 Bft) 95,65 %
02.07.2020 03:59 18,0 C 78 % 1009,7 hPa 0,0 l/m 1,6 km/h (1 Bft) SW 225 14,1 C 18,0 C 8,0 km/h (2 Bft) 100,00 %
02.07.2020 03:58 18,0 C 78 % 1009,7 hPa 0,0 l/m 1,6 km/h (1 Bft) O 90 14,1 C 18,0 C 4,8 km/h (1 Bft) 95,65 %
02.07.2020 03:57 18,0 C 78 % 1009,7 hPa 0,0 l/m 4,8 km/h (1 Bft) SW 225 14,1 C 18,0 C 12,9 km/h (3 Bft) 95,65 %
02.07.2020 03:56 18,1 C 78 % 1009,7 hPa 0,0 l/m 1,6 km/h (1 Bft) SO 135 14,2 C 18,1 C 4,8 km/h (1 Bft) 100,00 %
02.07.2020 03:55 18,0 C 78 % 1009,7 hPa 0,0 l/m 4,8 km/h (1 Bft) S-SW 202 14,1 C 18,0 C 6,4 km/h (2 Bft) 95,65 %
02.07.2020 03:54 18,1 C 78 % 1009,7 hPa 0,0 l/m 4,8 km/h (1 Bft) SW 225 14,2 C 18,1 C 8,0 km/h (2 Bft) 95,65 %
02.07.2020 03:53 18,1 C 78 % 1009,6 hPa 0,0 l/m 6,4 km/h (2 Bft) SW 225 14,2 C 18,1 C 11,3 km/h (2 Bft) 91,30 %
02.07.2020 03:52 18,0 C 78 % 1009,8 hPa 0,0 l/m 3,2 km/h (1 Bft) SW 225 14,1 C 18,0 C 8,0 km/h (2 Bft) 95,65 %
02.07.2020 03:51 18,0 C 78 % 1009,8 hPa 0,0 l/m 1,6 km/h (1 Bft) SW 225 14,1 C 18,0 C 6,4 km/h (2 Bft) 95,65 %
02.07.2020 03:50 18,0 C 78 % 1009,7 hPa 0,0 l/m 1,6 km/h (1 Bft) W-SW 247 14,1 C 18,0 C 8,0 km/h (2 Bft) 100,00 %
02.07.2020 03:49 18,0 C 78 % 1009,8 hPa 0,0 l/m 4,8 km/h (1 Bft) SO 135 14,1 C 18,0 C 6,4 km/h (2 Bft) 95,65 %
02.07.2020 03:48 18,0 C 78 % 1009,7 hPa 0,0 l/m 1,6 km/h (1 Bft) W 270 14,1 C 18,0 C 4,8 km/h (1 Bft) 95,65 %
02.07.2020 03:47 18,1 C 78 % 1009,7 hPa 0,0 l/m 1,6 km/h (1 Bft) SO 135 14,2 C 18,1 C 3,2 km/h (1 Bft) 95,65 %
02.07.2020 03:46 18,0 C 78 % 1009,7 hPa 0,0 l/m 4,8 km/h (1 Bft) O 90 14,1 C 18,0 C 8,0 km/h (2 Bft) 95,65 %
02.07.2020 03:45 18,0 C 78 % 1009,6 hPa 0,0 l/m 6,4 km/h (2 Bft) SW 225 14,1 C 18,0 C 12,9 km/h (3 Bft) 95,65 %
02.07.2020 03:44 17,9 C 78 % 1009,6 hPa 0,0 l/m 6,4 km/h (2 Bft) S-SW 202 14,0 C 17,9 C 9,7 km/h (2 Bft) 91,30 %
02.07.2020 03:43 17,9 C 79 % 1009,6 hPa 0,0 l/m 4,8 km/h (1 Bft) O-SO 112 14,2 C 17,9 C 11,3 km/h (2 Bft) 100,00 %
02.07.2020 03:42 17,9 C 79 % 1009,5 hPa 0,0 l/m 1,6 km/h (1 Bft) O 90 14,2 C 17,9 C 3,2 km/h (1 Bft) 91,30 %
02.07.2020 03:41 17,8 C 79 % 1009,4 hPa 0,0 l/m 3,2 km/h (1 Bft) S-SW 202 14,1 C 17,8 C 9,7 km/h (2 Bft) 91,30 %
02.07.2020 03:40 17,8 C 79 % 1009,5 hPa 0,0 l/m 3,2 km/h (1 Bft) SW 225 14,1 C 17,8 C 8,0 km/h (2 Bft) 100,00 %
02.07.2020 03:39 17,8 C 79 % 1009,5 hPa 0,0 l/m 1,6 km/h (1 Bft) O-SO 112 14,1 C 17,8 C 6,4 km/h (2 Bft) 95,65 %
02.07.2020 03:38 17,8 C 79 % 1009,6 hPa 0,0 l/m 1,6 km/h (1 Bft) O-SO 112 14,1 C 17,8 C 6,4 km/h (2 Bft) 100,00 %
02.07.2020 03:37 17,8 C 79 % 1009,5 hPa 0,0 l/m 1,6 km/h (1 Bft) O-SO 112 14,1 C 17,8 C 4,8 km/h (1 Bft) 100,00 %
02.07.2020 03:36 17,8 C 79 % 1009,6 hPa 0,0 l/m 3,2 km/h (1 Bft) O-SO 112 14,1 C 17,8 C 4,8 km/h (1 Bft) 95,65 %
02.07.2020 03:35 17,9 C 79 % 1009,6 hPa 0,0 l/m 0,0 km/h (0 Bft) SO 135 14,2 C 17,9 C 1,6 km/h (1 Bft) 95,65 %
02.07.2020 03:34 17,9 C 79 % 1009,5 hPa 0,0 l/m 0,0 km/h (0 Bft) N 0 14,2 C 17,9 C 0,0 km/h (0 Bft) 91,30 %
02.07.2020 03:33 17,9 C 79 % 1009,5 hPa 0,0 l/m 0,0 km/h (0 Bft) N 0 14,2 C 17,9 C 0,0 km/h (0 Bft) 100,00 %
02.07.2020 03:32 18,0 C 79 % 1009,4 hPa 0,0 l/m 0,0 km/h (0 Bft) N 0 14,3 C 18,0 C 0,0 km/h (0 Bft) 91,30 %
02.07.2020 03:31 18,0 C 79 % 1009,4 hPa 0,0 l/m 0,0 km/h (0 Bft) O-SO 112 14,3 C 18,0 C 3,2 km/h (1 Bft) 100,00 %
02.07.2020 03:30 18,1 C 78 % 1009,4 hPa 0,0 l/m 3,2 km/h (1 Bft) SO 135 14,2 C 18,1 C 4,8 km/h (1 Bft) 95,65 %
02.07.2020 03:29 18,0 C 78 % 1009,4 hPa 0,0 l/m 4,8 km/h (1 Bft) SO 135 14,1 C 18,0 C 6,4 km/h (2 Bft) 91,30 %
02.07.2020 03:28 18,0 C 78 % 1009,5 hPa 0,0 l/m 4,8 km/h (1 Bft) O-SO 112 14,1 C 18,0 C 6,4 km/h (2 Bft) 95,65 %
02.07.2020 03:27 17,9 C 79 % 1009,4 hPa 0,0 l/m 3,2 km/h (1 Bft) O-SO 112 14,2 C 17,9 C 4,8 km/h (1 Bft) 91,30 %
02.07.2020 03:26 17,9 C 78 % 1009,5 hPa 0,0 l/m 3,2 km/h (1 Bft) O-SO 112 14,0 C 17,9 C 6,4 km/h (2 Bft) 100,00 %
02.07.2020 03:25 17,9 C 79 % 1009,4 hPa 0,0 l/m 3,2 km/h (1 Bft) O 90 14,2 C 17,9 C 4,8 km/h (1 Bft) 91,30 %
02.07.2020 03:24 17,8 C 79 % 1009,4 hPa 0,0 l/m 1,6 km/h (1 Bft) S-SO 157 14,1 C 17,8 C 4,8 km/h (1 Bft) 95,65 %
02.07.2020 03:23 17,8 C 79 % 1009,4 hPa 0,0 l/m 1,6 km/h (1 Bft) SO 135 14,1 C 17,8 C 3,2 km/h (1 Bft) 100,00 %
02.07.2020 03:22 17,7 C 79 % 1009,3 hPa 0,0 l/m 3,2 km/h (1 Bft) SO 135 14,0 C 17,7 C 4,8 km/h (1 Bft) 91,30 %
02.07.2020 03:21 17,7 C 79 % 1009,3 hPa 0,0 l/m 4,8 km/h (1 Bft) O 90 14,0 C 17,7 C 8,0 km/h (2 Bft) 100,00 %
02.07.2020 03:20 17,6 C 79 % 1009,4 hPa 0,0 l/m 1,6 km/h (1 Bft) O-SO 112 13,9 C 17,6 C 6,4 km/h (2 Bft) 95,65 %
02.07.2020 03:19 17,7 C 79 % 1009,4 hPa 0,0 l/m 4,8 km/h (1 Bft) O-SO 112 14,0 C 17,7 C 6,4 km/h (2 Bft) 100,00 %
02.07.2020 03:18 17,7 C 79 % 1009,4 hPa 0,0 l/m 0,0 km/h (0 Bft) O-SO 112 14,0 C 17,7 C 1,6 km/h (1 Bft) 95,65 %
02.07.2020 03:17 17,7 C 79 % 1009,4 hPa 0,0 l/m 0,0 km/h (0 Bft) SO 135 14,0 C 17,7 C 1,6 km/h (1 Bft) 100,00 %
02.07.2020 03:16 17,7 C 79 % 1009,2 hPa 0,0 l/m 1,6 km/h (1 Bft) O-SO 112 14,0 C 17,7 C 6,4 km/h (2 Bft) 95,65 %
02.07.2020 03:15 17,7 C 79 % 1009,2 hPa 0,0 l/m 3,2 km/h (1 Bft) O-SO 112 14,0 C 17,7 C 4,8 km/h (1 Bft) 91,30 %
02.07.2020 03:14 17,8 C 78 % 1009,2 hPa 0,0 l/m 4,8 km/h (1 Bft) O-SO 112 13,9 C 17,8 C 8,0 km/h (2 Bft) 100,00 %
02.07.2020 03:13 17,9 C 78 % 1009,3 hPa 0,0 l/m 3,2 km/h (1 Bft) S 180 14,0 C 17,9 C 4,8 km/h (1 Bft) 95,65 %
02.07.2020 03:12 18,0 C 78 % 1009,4 hPa 0,0 l/m 3,2 km/h (1 Bft) SO 135 14,1 C 18,0 C 4,8 km/h (1 Bft) 100,00 %
02.07.2020 03:11 18,0 C 78 % 1009,3 hPa 0,0 l/m 3,2 km/h (1 Bft) O-SO 112 14,1 C 18,0 C 9,7 km/h (2 Bft) 100,00 %
02.07.2020 03:10 17,9 C 78 % 1009,4 hPa 0,0 l/m 3,2 km/h (1 Bft) SO 135 14,0 C 17,9 C 6,4 km/h (2 Bft) 100,00 %
02.07.2020 03:09 17,9 C 78 % 1009,5 hPa 0,0 l/m 1,6 km/h (1 Bft) SO 135 14,0 C 17,9 C 4,8 km/h (1 Bft) 100,00 %
02.07.2020 03:08 17,9 C 78 % 1009,5 hPa 0,0 l/m 1,6 km/h (1 Bft) SO 135 14,0 C 17,9 C 4,8 km/h (1 Bft) 91,30 %
02.07.2020 03:07 17,8 C 78 % 1009,5 hPa 0,0 l/m 4,8 km/h (1 Bft) W 270 13,9 C 17,8 C 9,7 km/h (2 Bft) 95,65 %
02.07.2020 03:06 17,8 C 79 % 1009,4 hPa 0,0 l/m 11,3 km/h (2 Bft) O-SO 112 14,1 C 15,7 C 14,5 km/h (3 Bft) 95,65 %
02.07.2020 03:05 17,8 C 79 % 1009,5 hPa 0,0 l/m 4,8 km/h (1 Bft) SO 135 14,1 C 17,8 C 12,9 km/h (3 Bft) 100,00 %
02.07.2020 03:04 17,8 C 79 % 1009,5 hPa 0,0 l/m 3,2 km/h (1 Bft) NO 45 14,1 C 17,8 C 4,8 km/h (1 Bft) 95,65 %
02.07.2020 03:03 17,8 C 79 % 1009,4 hPa 0,0 l/m 1,6 km/h (1 Bft) NO 45 14,1 C 17,8 C 4,8 km/h (1 Bft) 100,00 %
02.07.2020 03:02 17,8 C 79 % 1009,4 hPa 0,0 l/m 1,6 km/h (1 Bft) N-NO 22 14,1 C 17,8 C 3,2 km/h (1 Bft) 100,00 %
02.07.2020 03:01 17,9 C 78 % 1009,4 hPa 0,0 l/m 3,2 km/h (1 Bft) SO 135 14,0 C 17,9 C 3,2 km/h (1 Bft) 86,96 %
02.07.2020 03:00 17,9 C 78 % 1009,4 hPa 0,0 l/m 3,2 km/h (1 Bft) O-SO 112 14,0 C 17,9 C 4,8 km/h (1 Bft) 95,65 %
02.07.2020 02:59 17,9 C 78 % 1009,4 hPa 0,0 l/m 1,6 km/h (1 Bft) O 90 14,0 C 17,9 C 4,8 km/h (1 Bft) 100,00 %
02.07.2020 02:58 17,9 C 78 % 1009,3 hPa 0,0 l/m 4,8 km/h (1 Bft) O 90 14,0 C 17,9 C 8,0 km/h (2 Bft) 91,30 %
02.07.2020 02:57 17,8 C 78 % 1009,4 hPa 0,0 l/m 9,7 km/h (2 Bft) NO 45 13,9 C 16,3 C 16,1 km/h (3 Bft) 95,65 %
02.07.2020 02:56 17,8 C 78 % 1009,5 hPa 0,0 l/m 6,4 km/h (2 Bft) O 90 13,9 C 17,8 C 14,5 km/h (3 Bft) 91,30 %
02.07.2020 02:55 17,8 C 79 % 1009,4 hPa 0,0 l/m 4,8 km/h (1 Bft) SO 135 14,1 C 17,8 C 8,0 km/h (2 Bft) 100,00 %
02.07.2020 02:54 17,8 C 78 % 1009,4 hPa 0,0 l/m 3,2 km/h (1 Bft) SO 135 13,9 C 17,8 C 6,4 km/h (2 Bft) 100,00 %
02.07.2020 02:53 17,8 C 78 % 1009,3 hPa 0,0 l/m 4,8 km/h (1 Bft) O 90 13,9 C 17,8 C 11,3 km/h (2 Bft) 91,30 %
02.07.2020 02:52 17,8 C 78 % 1009,3 hPa 0,0 l/m 4,8 km/h (1 Bft) NO 45 13,9 C 17,8 C 8,0 km/h (2 Bft) 100,00 %
02.07.2020 02:51 17,8 C 78 % 1009,3 hPa 0,0 l/m 3,2 km/h (1 Bft) O-SO 112 13,9 C 17,8 C 6,4 km/h (2 Bft) 95,65 %
02.07.2020 02:50 17,7 C 78 % 1009,3 hPa 0,0 l/m 1,6 km/h (1 Bft) O 90 13,8 C 17,7 C 6,4 km/h (2 Bft) 100,00 %
02.07.2020 02:49 17,7 C 78 % 1009,2 hPa 0,0 l/m 6,4 km/h (2 Bft) NO 45 13,8 C 17,7 C 11,3 km/h (2 Bft) 91,30 %
02.07.2020 02:48 17,7 C 79 % 1009,3 hPa 0,0 l/m 3,2 km/h (1 Bft) N 360 14,0 C 17,7 C 8,0 km/h (2 Bft) 91,30 %
02.07.2020 02:47 17,7 C 79 % 1009,3 hPa 0,0 l/m 3,2 km/h (1 Bft) NO 45 14,0 C 17,7 C 6,4 km/h (2 Bft) 95,65 %
02.07.2020 02:46 17,7 C 79 % 1009,3 hPa 0,0 l/m 1,6 km/h (1 Bft) O 90 14,0 C 17,7 C 4,8 km/h (1 Bft) 100,00 %
02.07.2020 02:45 17,7 C 78 % 1009,3 hPa 0,0 l/m 3,2 km/h (1 Bft) NO 45 13,8 C 17,7 C 8,0 km/h (2 Bft) 100,00 %
02.07.2020 02:44 17,7 C 78 % 1009,2 hPa 0,0 l/m 4,8 km/h (1 Bft) NO 45 13,8 C 17,7 C 9,7 km/h (2 Bft) 95,65 %
02.07.2020 02:43 17,7 C 78 % 1009,3 hPa 0,0 l/m 3,2 km/h (1 Bft) O-NO 67 13,8 C 17,7 C 4,8 km/h (1 Bft) 91,30 %
02.07.2020 02:42 17,8 C 78 % 1009,3 hPa 0,0 l/m 4,8 km/h (1 Bft) NO 45 13,9 C 17,8 C 6,4 km/h (2 Bft) 100,00 %
02.07.2020 02:41 17,8 C 78 % 1009,3 hPa 0,0 l/m 4,8 km/h (1 Bft) NO 45 13,9 C 17,8 C 8,0 km/h (2 Bft) 91,30 %
02.07.2020 02:40 17,8 C 78 % 1009,2 hPa 0,0 l/m 4,8 km/h (1 Bft) NO 45 13,9 C 17,8 C 8,0 km/h (2 Bft) 100,00 %
02.07.2020 02:39 17,9 C 78 % 1009,3 hPa 0,0 l/m 6,4 km/h (2 Bft) O-NO 67 14,0 C 17,9 C 11,3 km/h (2 Bft) 95,65 %
02.07.2020 02:38 17,9 C 78 % 1009,3 hPa 0,0 l/m 3,2 km/h (1 Bft) NO 45 14,0 C 17,9 C 12,9 km/h (3 Bft) 100,00 %
02.07.2020 02:37 17,9 C 77 % 1009,3 hPa 0,0 l/m 4,8 km/h (1 Bft) NO 45 13,8 C 17,9 C 6,4 km/h (2 Bft) 95,65 %
02.07.2020 02:36 18,0 C 77 % 1009,4 hPa 0,0 l/m 9,7 km/h (2 Bft) NO 45 13,9 C 16,5 C 12,9 km/h (3 Bft) 95,65 %
02.07.2020 02:35 18,1 C 77 % 1009,4 hPa 0,0 l/m 8,0 km/h (2 Bft) NO 45 14,0 C 17,4 C 11,3 km/h (2 Bft) 100,00 %
02.07.2020 02:34 18,1 C 76 % 1009,3 hPa 0,0 l/m 9,7 km/h (2 Bft) NO 45 13,8 C 16,7 C 12,9 km/h (3 Bft) 91,30 %
02.07.2020 02:33 18,1 C 76 % 1009,4 hPa 0,0 l/m 6,4 km/h (2 Bft) NO 45 13,8 C 18,1 C 9,7 km/h (2 Bft) 95,65 %
02.07.2020 02:32 18,1 C 76 % 1009,3 hPa 0,0 l/m 8,0 km/h (2 Bft) O-NO 67 13,8 C 17,4 C 17,7 km/h (3 Bft) 95,65 %
02.07.2020 02:31 18,1 C 75 % 1009,3 hPa 0,0 l/m 4,8 km/h (1 Bft) NO 45 13,6 C 18,1 C 8,0 km/h (2 Bft) 91,30 %
02.07.2020 02:30 18,1 C 75 % 1009,4 hPa 0,0 l/m 6,4 km/h (2 Bft) N-NO 22 13,6 C 18,1 C 12,9 km/h (3 Bft) 95,65 %
02.07.2020 02:29 17,9 C 76 % 1009,4 hPa 0,0 l/m 3,2 km/h (1 Bft) O-NO 67 13,6 C 17,9 C 6,4 km/h (2 Bft) 95,65 %
02.07.2020 02:28 17,9 C 76 % 1009,3 hPa 0,0 l/m 3,2 km/h (1 Bft) NO 45 13,6 C 17,9 C 9,7 km/h (2 Bft) 100,00 %
02.07.2020 02:27 17,9 C 76 % 1009,2 hPa 0,0 l/m 4,8 km/h (1 Bft) O-NO 67 13,6 C 17,9 C 11,3 km/h (2 Bft) 100,00 %
02.07.2020 02:26 17,9 C 76 % 1009,2 hPa 0,0 l/m 3,2 km/h (1 Bft) O-NO 67 13,6 C 17,9 C 4,8 km/h (1 Bft) 100,00 %
02.07.2020 02:25 17,9 C 76 % 1009,3 hPa 0,0 l/m 3,2 km/h (1 Bft) N-NO 22 13,6 C 17,9 C 6,4 km/h (2 Bft) 91,30 %
02.07.2020 02:24 18,0 C 76 % 1009,3 hPa 0,0 l/m 0,0 km/h (0 Bft) O-NO 67 13,7 C 18,0 C 3,2 km/h (1 Bft) 91,30 %
02.07.2020 02:23 18,1 C 75 % 1009,2 hPa 0,0 l/m 0,0 km/h (0 Bft) NO 45 13,6 C 18,1 C 1,6 km/h (1 Bft) 95,65 %
02.07.2020 02:22 18,1 C 75 % 1009,3 hPa 0,0 l/m 3,2 km/h (1 Bft) O-SO 112 13,6 C 18,1 C 4,8 km/h (1 Bft) 95,65 %
02.07.2020 02:21 18,1 C 75 % 1009,3 hPa 0,0 l/m 4,8 km/h (1 Bft) O-SO 112 13,6 C 18,1 C 6,4 km/h (2 Bft) 95,65 %
02.07.2020 02:20 18,1 C 75 % 1009,2 hPa 0,0 l/m 1,6 km/h (1 Bft) O 90 13,6 C 18,1 C 4,8 km/h (1 Bft) 95,65 %
02.07.2020 02:19 18,1 C 75 % 1009,2 hPa 0,0 l/m 1,6 km/h (1 Bft) O-SO 112 13,6 C 18,1 C 4,8 km/h (1 Bft) 95,65 %
02.07.2020 02:18 18,1 C 74 % 1009,2 hPa 0,0 l/m 0,0 km/h (0 Bft) SO 135 13,4 C 18,1 C 1,6 km/h (1 Bft) 100,00 %
02.07.2020 02:17 18,1 C 74 % 1009,2 hPa 0,0 l/m 1,6 km/h (1 Bft) O-SO 112 13,4 C 18,1 C 3,2 km/h (1 Bft) 95,65 %
02.07.2020 02:16 18,2 C 74 % 1009,1 hPa 0,0 l/m 0,0 km/h (0 Bft) O-SO 112 13,5 C 18,2 C 1,6 km/h (1 Bft) 95,65 %
02.07.2020 02:15 18,2 C 74 % 1009,2 hPa 0,0 l/m 1,6 km/h (1 Bft) O 90 13,5 C 18,2 C 3,2 km/h (1 Bft) 91,30 %
02.07.2020 02:14 18,3 C 74 % 1009,3 hPa 0,0 l/m 1,6 km/h (1 Bft) SO 135 13,6 C 18,3 C 4,8 km/h (1 Bft) 95,65 %
02.07.2020 02:13 18,2 C 74 % 1009,2 hPa 0,0 l/m 0,0 km/h (0 Bft) N-NO 22 13,5 C 18,2 C 1,6 km/h (1 Bft) 95,65 %
02.07.2020 02:12 18,2 C 73 % 1009,2 hPa 0,0 l/m 3,2 km/h (1 Bft) N 360 13,3 C 18,2 C 6,4 km/h (2 Bft) 95,65 %
02.07.2020 02:11 18,1 C 75 % 1009,3 hPa 0,0 l/m 6,4 km/h (2 Bft) NO 45 13,6 C 18,1 C 8,0 km/h (2 Bft) 100,00 %
02.07.2020 02:10 18,1 C 75 % 1009,2 hPa 0,0 l/m 3,2 km/h (1 Bft) NO 45 13,6 C 18,1 C 4,8 km/h (1 Bft) 100,00 %
02.07.2020 02:09 18,1 C 74 % 1009,3 hPa 0,0 l/m 3,2 km/h (1 Bft) NO 45 13,4 C 18,1 C 6,4 km/h (2 Bft) 91,30 %
02.07.2020 02:08 18,1 C 74 % 1009,2 hPa 0,0 l/m 3,2 km/h (1 Bft) NO 45 13,4 C 18,1 C 6,4 km/h (2 Bft) 100,00 %
02.07.2020 02:07 18,2 C 73 % 1009,2 hPa 0,0 l/m 1,6 km/h (1 Bft) NO 45 13,3 C 18,2 C 4,8 km/h (1 Bft) 95,65 %
02.07.2020 02:06 18,3 C 73 % 1009,1 hPa 0,0 l/m 0,0 km/h (0 Bft) N-NO 22 13,4 C 18,3 C 4,8 km/h (1 Bft) 100,00 %
02.07.2020 02:05 18,4 C 73 % 1009,2 hPa 0,0 l/m 1,6 km/h (1 Bft) N-NO 22 13,5 C 18,4 C 3,2 km/h (1 Bft) 91,30 %
02.07.2020 02:04 18,5 C 73 % 1009,1 hPa 0,0 l/m 0,0 km/h (0 Bft) NO 45 13,6 C 18,5 C 3,2 km/h (1 Bft) 100,00 %
02.07.2020 02:03 18,7 C 72 % 1009,1 hPa 0,0 l/m 3,2 km/h (1 Bft) NO 45 13,5 C 18,7 C 6,4 km/h (2 Bft) 95,65 %
02.07.2020 02:02 18,8 C 72 % 1009,1 hPa 0,0 l/m 1,6 km/h (1 Bft) O-NO 67 13,6 C 18,8 C 3,2 km/h (1 Bft) 100,00 %
02.07.2020 02:01 18,9 C 71 % 1009,1 hPa 0,0 l/m 3,2 km/h (1 Bft) NO 45 13,5 C 18,9 C 3,2 km/h (1 Bft) 95,65 %
02.07.2020 02:00 19,1 C 70 % 1009,0 hPa 0,0 l/m 1,6 km/h (1 Bft) O-SO 112 13,5 C 19,1 C 3,2 km/h (1 Bft) 95,65 %
02.07.2020 01:59 19,2 C 69 % 1009,1 hPa 0,0 l/m 0,0 km/h (0 Bft) NO 45 13,4 C 19,2 C 1,6 km/h (1 Bft) 100,00 %
02.07.2020 01:58 19,4 C 69 % 1009,0 hPa 0,0 l/m 3,2 km/h (1 Bft) NO 45 13,6 C 19,4 C 4,8 km/h (1 Bft) 86,96 %
02.07.2020 01:57 19,4 C 68 % 1009,1 hPa 0,0 l/m 0,0 km/h (0 Bft) N 0 13,3 C 19,4 C 0,0 km/h (0 Bft) 95,65 %
02.07.2020 01:56 19,6 C 68 % 1009,0 hPa 0,0 l/m 0,0 km/h (0 Bft) SO 135 13,5 C 19,6 C 1,6 km/h (1 Bft) 91,30 %
02.07.2020 01:55 19,7 C 67 % 1009,0 hPa 0,0 l/m 1,6 km/h (1 Bft) NO 45 13,4 C 19,7 C 3,2 km/h (1 Bft) 91,30 %
02.07.2020 01:54 19,8 C 67 % 1008,9 hPa 0,0 l/m 1,6 km/h (1 Bft) N-NW 337 13,5 C 19,8 C 3,2 km/h (1 Bft) 95,65 %
02.07.2020 01:53 19,9 C 66 % 1008,9 hPa 0,0 l/m 0,0 km/h (0 Bft) O-SO 112 13,4 C 19,9 C 1,6 km/h (1 Bft) 95,65 %
02.07.2020 01:52 19,9 C 66 % 1008,9 hPa 0,0 l/m 0,0 km/h (0 Bft) O-SO 112 13,4 C 19,9 C 1,6 km/h (1 Bft) 95,65 %
02.07.2020 01:51 20,0 C 66 % 1008,9 hPa 0,0 l/m 0,0 km/h (0 Bft) S-SO 157 13,4 C 20,0 C 1,6 km/h (1 Bft) 91,30 %
02.07.2020 01:50 20,0 C 66 % 1008,9 hPa 0,0 l/m 1,6 km/h (1 Bft) S 180 13,4 C 20,0 C 4,8 km/h (1 Bft) 91,30 %
02.07.2020 01:49 20,0 C 66 % 1008,9 hPa 0,0 l/m 3,2 km/h (1 Bft) SW 225 13,4 C 20,0 C 6,4 km/h (2 Bft) 95,65 %
02.07.2020 01:48 20,0 C 66 % 1008,8 hPa 0,0 l/m 3,2 km/h (1 Bft) SW 225 13,4 C 20,0 C 6,4 km/h (2 Bft) 100,00 %
02.07.2020 01:47 20,1 C 66 % 1008,9 hPa 0,0 l/m 3,2 km/h (1 Bft) SW 225 13,5 C 20,1 C 8,0 km/h (2 Bft) 100,00 %
02.07.2020 01:46 20,1 C 66 % 1008,9 hPa 0,0 l/m 3,2 km/h (1 Bft) SW 225 13,5 C 20,1 C 6,4 km/h (2 Bft) 100,00 %
02.07.2020 01:45 20,1 C 65 % 1008,8 hPa 0,0 l/m 8,0 km/h (2 Bft) SW 225 13,3 C 19,5 C 11,3 km/h (2 Bft) 100,00 %
02.07.2020 01:44 20,1 C 65 % 1008,9 hPa 0,0 l/m 4,8 km/h (1 Bft) SW 225 13,3 C 20,1 C 9,7 km/h (2 Bft) 100,00 %
02.07.2020 01:43 20,1 C 65 % 1008,8 hPa 0,0 l/m 6,4 km/h (2 Bft) SW 225 13,3 C 20,1 C 8,0 km/h (2 Bft) 95,65 %
02.07.2020 01:42 20,2 C 65 % 1008,8 hPa 0,0 l/m 6,4 km/h (2 Bft) SW 225 13,4 C 20,2 C 11,3 km/h (2 Bft) 95,65 %
02.07.2020 01:41 20,2 C 65 % 1008,9 hPa 0,0 l/m 8,0 km/h (2 Bft) SW 225 13,4 C 19,6 C 11,3 km/h (2 Bft) 91,30 %
02.07.2020 01:40 20,2 C 65 % 1008,8 hPa 0,0 l/m 8,0 km/h (2 Bft) SW 225 13,4 C 19,6 C 12,9 km/h (3 Bft) 100,00 %
02.07.2020 01:39 20,3 C 65 % 1008,9 hPa 0,0 l/m 4,8 km/h (1 Bft) W-SW 247 13,5 C 20,3 C 11,3 km/h (2 Bft) 95,65 %
02.07.2020 01:38 20,3 C 64 % 1008,9 hPa 0,0 l/m 6,4 km/h (2 Bft) SW 225 13,3 C 20,3 C 11,3 km/h (2 Bft) 91,30 %
02.07.2020 01:37 20,3 C 64 % 1008,9 hPa 0,0 l/m 6,4 km/h (2 Bft) W-SW 247 13,3 C 20,3 C 11,3 km/h (2 Bft) 95,65 %
02.07.2020 01:36 20,3 C 64 % 1008,9 hPa 0,0 l/m 8,0 km/h (2 Bft) W-SW 247 13,3 C 19,7 C 12,9 km/h (3 Bft) 95,65 %
02.07.2020 01:35 20,3 C 64 % 1008,8 hPa 0,0 l/m 9,7 km/h (2 Bft) W-SW 247 13,3 C 19,1 C 14,5 km/h (3 Bft) 100,00 %
02.07.2020 01:34 20,2 C 64 % 1008,8 hPa 0,0 l/m 12,9 km/h (3 Bft) W-SW 247 13,2 C 18,0 C 17,7 km/h (3 Bft) 86,96 %
02.07.2020 01:33 20,1 C 65 % 1008,9 hPa 0,0 l/m 11,3 km/h (2 Bft) SW 225 13,3 C 18,3 C 16,1 km/h (3 Bft) 95,65 %
02.07.2020 01:32 19,9 C 65 % 1008,9 hPa 0,0 l/m 8,0 km/h (2 Bft) SW 225 13,1 C 19,2 C 12,9 km/h (3 Bft) 91,30 %
02.07.2020 01:31 19,9 C 66 % 1008,9 hPa 0,0 l/m 8,0 km/h (2 Bft) W-SW 247 13,4 C 19,2 C 11,3 km/h (2 Bft) 95,65 %
02.07.2020 01:30 19,8 C 66 % 1008,8 hPa 0,0 l/m 9,7 km/h (2 Bft) W-SW 247 13,3 C 18,5 C 14,5 km/h (3 Bft) 100,00 %
02.07.2020 01:29 19,8 C 66 % 1008,9 hPa 0,0 l/m 8,0 km/h (2 Bft) W-SW 247 13,3 C 19,1 C 12,9 km/h (3 Bft) 100,00 %
02.07.2020 01:28 19,8 C 67 % 1008,8 hPa 0,0 l/m 8,0 km/h (2 Bft) W-NW 292 13,5 C 19,1 C 11,3 km/h (2 Bft) 95,65 %
02.07.2020 01:27 19,7 C 67 % 1008,9 hPa 0,0 l/m 8,0 km/h (2 Bft) SW 225 13,4 C 19,0 C 14,5 km/h (3 Bft) 91,30 %
02.07.2020 01:26 19,7 C 67 % 1008,9 hPa 0,0 l/m 6,4 km/h (2 Bft) W-SW 247 13,4 C 19,7 C 9,7 km/h (2 Bft) 91,30 %
02.07.2020 01:25 19,6 C 67 % 1009,0 hPa 0,0 l/m 8,0 km/h (2 Bft) SW 225 13,3 C 18,9 C 14,5 km/h (3 Bft) 100,00 %
02.07.2020 01:24 19,5 C 67 % 1008,9 hPa 0,0 l/m 8,0 km/h (2 Bft) SW 225 13,2 C 18,8 C 17,7 km/h (3 Bft) 95,65 %
02.07.2020 01:23 19,4 C 68 % 1009,0 hPa 0,0 l/m 8,0 km/h (2 Bft) W-SW 247 13,3 C 18,7 C 14,5 km/h (3 Bft) 100,00 %
02.07.2020 01:22 19,3 C 68 % 1009,0 hPa 0,0 l/m 4,8 km/h (1 Bft) W-SW 247 13,2 C 19,3 C 9,7 km/h (2 Bft) 100,00 %
02.07.2020 01:21 19,2 C 69 % 1008,9 hPa 0,0 l/m 4,8 km/h (1 Bft) W 270 13,4 C 19,2 C 6,4 km/h (2 Bft) 91,30 %
02.07.2020 01:20 19,1 C 71 % 1009,0 hPa 0,0 l/m 8,0 km/h (2 Bft) W-NW 292 13,7 C 18,4 C 16,1 km/h (3 Bft) 95,65 %
02.07.2020 01:19 19,1 C 71 % 1008,9 hPa 0,0 l/m 3,2 km/h (1 Bft) W 270 13,7 C 19,1 C 6,4 km/h (2 Bft) 100,00 %
02.07.2020 01:18 19,0 C 72 % 1009,0 hPa 0,0 l/m 4,8 km/h (1 Bft) W 270 13,8 C 19,0 C 9,7 km/h (2 Bft) 95,65 %
02.07.2020 01:17 19,1 C 72 % 1009,0 hPa 0,0 l/m 1,6 km/h (1 Bft) NW 315 13,9 C 19,1 C 6,4 km/h (2 Bft) 95,65 %
02.07.2020 01:16 19,0 C 71 % 1009,1 hPa 0,0 l/m 4,8 km/h (1 Bft) N 360 13,6 C 19,0 C 9,7 km/h (2 Bft) 95,65 %
02.07.2020 01:15 18,9 C 72 % 1009,0 hPa 0,0 l/m 6,4 km/h (2 Bft) NW 315 13,7 C 18,9 C 14,5 km/h (3 Bft) 91,30 %
02.07.2020 01:14 19,1 C 72 % 1009,1 hPa 0,0 l/m 1,6 km/h (1 Bft) N-NW 337 13,9 C 19,1 C 4,8 km/h (1 Bft) 100,00 %
02.07.2020 01:13 19,2 C 71 % 1009,2 hPa 0,0 l/m 6,4 km/h (2 Bft) N 360 13,8 C 19,2 C 9,7 km/h (2 Bft) 95,65 %
02.07.2020 01:12 19,2 C 71 % 1009,1 hPa 0,0 l/m 6,4 km/h (2 Bft) N-NW 337 13,8 C 19,2 C 11,3 km/h (2 Bft) 91,30 %
02.07.2020 01:11 19,3 C 70 % 1009,0 hPa 0,0 l/m 6,4 km/h (2 Bft) NW 315 13,7 C 19,3 C 8,0 km/h (2 Bft) 100,00 %
02.07.2020 01:10 19,4 C 71 % 1009,1 hPa 0,0 l/m 4,8 km/h (1 Bft) N-NW 337 14,0 C 19,4 C 6,4 km/h (2 Bft) 95,65 %
02.07.2020 01:09 19,4 C 70 % 1009,1 hPa 0,0 l/m 4,8 km/h (1 Bft) N 360 13,8 C 19,4 C 6,4 km/h (2 Bft) 91,30 %
02.07.2020 01:08 19,6 C 70 % 1009,2 hPa 0,0 l/m 3,2 km/h (1 Bft) N-NW 337 14,0 C 19,6 C 6,4 km/h (2 Bft) 100,00 %
02.07.2020 01:07 19,6 C 70 % 1009,1 hPa 0,0 l/m 3,2 km/h (1 Bft) N-NW 337 14,0 C 19,6 C 6,4 km/h (2 Bft) 95,65 %
02.07.2020 01:06 19,6 C 68 % 1009,0 hPa 0,0 l/m 4,8 km/h (1 Bft) NW 315 13,5 C 19,6 C 9,7 km/h (2 Bft) 100,00 %
02.07.2020 01:05 19,4 C 68 % 1009,0 hPa 0,0 l/m 8,0 km/h (2 Bft) W-NW 292 13,3 C 18,7 C 11,3 km/h (2 Bft) 95,65 %
02.07.2020 01:04 19,3 C 69 % 1009,0 hPa 0,0 l/m 9,7 km/h (2 Bft) NW 315 13,5 C 18,0 C 14,5 km/h (3 Bft) 100,00 %
02.07.2020 01:03 19,3 C 70 % 1009,0 hPa 0,0 l/m 8,0 km/h (2 Bft) NW 315 13,7 C 18,6 C 11,3 km/h (2 Bft) 91,30 %
02.07.2020 01:02 19,3 C 70 % 1008,9 hPa 0,0 l/m 9,7 km/h (2 Bft) NW 315 13,7 C 18,0 C 12,9 km/h (3 Bft) 91,30 %
02.07.2020 01:01 19,4 C 71 % 1008,8 hPa 0,0 l/m 8,0 km/h (2 Bft) NW 315 14,0 C 18,7 C 11,3 km/h (2 Bft) 100,00 %
02.07.2020 01:00 19,7 C 71 % 1008,8 hPa 0,0 l/m 8,0 km/h (2 Bft) NW 315 14,3 C 19,0 C 11,3 km/h (2 Bft) 91,30 %
02.07.2020 00:59 19,9 C 69 % 1008,8 hPa 0,0 l/m 8,0 km/h (2 Bft) NW 315 14,0 C 19,2 C 11,3 km/h (2 Bft) 95,65 %
02.07.2020 00:58 20,2 C 68 % 1008,9 hPa 0,0 l/m 8,0 km/h (2 Bft) NW 315 14,1 C 19,6 C 11,3 km/h (2 Bft) 91,30 %
02.07.2020 00:57 20,4 C 64 % 1008,8 hPa 0,0 l/m 4,8 km/h (1 Bft) NW 315 13,4 C 20,4 C 14,5 km/h (3 Bft) 91,30 %
02.07.2020 00:56 20,6 C 64 % 1008,9 hPa 0,0 l/m 3,2 km/h (1 Bft) W-NW 292 13,5 C 20,6 C 3,2 km/h (1 Bft) 100,00 %
02.07.2020 00:55 20,6 C 65 % 1008,9 hPa 0,0 l/m 4,8 km/h (1 Bft) NW 315 13,8 C 20,6 C 8,0 km/h (2 Bft) 91,30 %
02.07.2020 00:54 20,6 C 64 % 1008,8 hPa 0,0 l/m 4,8 km/h (1 Bft) W-SW 247 13,5 C 20,6 C 8,0 km/h (2 Bft) 95,65 %
02.07.2020 00:53 20,4 C 63 % 1008,8 hPa 0,0 l/m 8,0 km/h (2 Bft) W-NW 292 13,1 C 19,8 C 12,9 km/h (3 Bft) 100,00 %
02.07.2020 00:52 20,3 C 64 % 1008,9 hPa 0,0 l/m 4,8 km/h (1 Bft) S-SW 202 13,3 C 20,3 C 11,3 km/h (2 Bft) 95,65 %
02.07.2020 00:51 20,3 C 65 % 1008,8 hPa 0,0 l/m 1,6 km/h (1 Bft) W-NW 292 13,5 C 20,3 C 4,8 km/h (1 Bft) 91,30 %
02.07.2020 00:50 20,4 C 65 % 1008,8 hPa 0,0 l/m 0,0 km/h (0 Bft) SW 225 13,6 C 20,4 C 1,6 km/h (1 Bft) 95,65 %
02.07.2020 00:49 20,4 C 64 % 1008,7 hPa 0,0 l/m 3,2 km/h (1 Bft) SW 225 13,4 C 20,4 C 4,8 km/h (1 Bft) 95,65 %
02.07.2020 00:48 20,4 C 65 % 1008,8 hPa 0,0 l/m 4,8 km/h (1 Bft) W 270 13,6 C 20,4 C 9,7 km/h (2 Bft) 100,00 %
02.07.2020 00:47 20,4 C 65 % 1008,7 hPa 0,0 l/m 1,6 km/h (1 Bft) W 270 13,6 C 20,4 C 3,2 km/h (1 Bft) 91,30 %
02.07.2020 00:46 20,4 C 65 % 1008,7 hPa 0,0 l/m 4,8 km/h (1 Bft) NW 315 13,6 C 20,4 C 8,0 km/h (2 Bft) 95,65 %
02.07.2020 00:45 20,4 C 65 % 1008,7 hPa 0,0 l/m 4,8 km/h (1 Bft) W-NW 292 13,6 C 20,4 C 6,4 km/h (2 Bft) 91,30 %
02.07.2020 00:44 20,4 C 65 % 1008,7 hPa 0,0 l/m 8,0 km/h (2 Bft) W-SW 247 13,6 C 19,8 C 19,3 km/h (3 Bft) 100,00 %
02.07.2020 00:43 20,4 C 66 % 1008,8 hPa 0,0 l/m 6,4 km/h (2 Bft) SW 225 13,8 C 20,4 C 11,3 km/h (2 Bft) 100,00 %
02.07.2020 00:42 20,4 C 66 % 1008,8 hPa 0,0 l/m 9,7 km/h (2 Bft) SW 225 13,8 C 19,2 C 16,1 km/h (3 Bft) 100,00 %
02.07.2020 00:41 20,4 C 66 % 1008,8 hPa 0,0 l/m 12,9 km/h (3 Bft) W 270 13,8 C 18,2 C 19,3 km/h (3 Bft) 95,65 %
02.07.2020 00:40 20,4 C 66 % 1008,8 hPa 0,0 l/m 9,7 km/h (2 Bft) W-SW 247 13,8 C 19,2 C 19,3 km/h (3 Bft) 95,65 %
02.07.2020 00:39 20,3 C 66 % 1008,9 hPa 0,0 l/m 11,3 km/h (2 Bft) W 270 13,7 C 18,6 C 17,7 km/h (3 Bft) 95,65 %
02.07.2020 00:38 20,3 C 66 % 1008,9 hPa 0,0 l/m 9,7 km/h (2 Bft) W-SW 247 13,7 C 19,1 C 16,1 km/h (3 Bft) 91,30 %
02.07.2020 00:37 20,3 C 66 % 1008,9 hPa 0,0 l/m 9,7 km/h (2 Bft) W 270 13,7 C 19,1 C 16,1 km/h (3 Bft) 100,00 %
02.07.2020 00:36 20,4 C 66 % 1008,8 hPa 0,0 l/m 14,5 km/h (3 Bft) W-SW 247 13,8 C 17,9 C 19,3 km/h (3 Bft) 95,65 %
02.07.2020 00:35 20,4 C 66 % 1008,9 hPa 0,0 l/m 12,9 km/h (3 Bft) W 270 13,8 C 18,2 C 22,5 km/h (4 Bft) 100,00 %
02.07.2020 00:34 20,4 C 66 % 1008,9 hPa 0,0 l/m 8,0 km/h (2 Bft) W 270 13,8 C 19,8 C 14,5 km/h (3 Bft) 91,30 %
02.07.2020 00:33 20,4 C 65 % 1008,9 hPa 0,0 l/m 9,7 km/h (2 Bft) W-SW 247 13,6 C 19,2 C 12,9 km/h (3 Bft) 91,30 %
02.07.2020 00:32 20,3 C 65 % 1008,8 hPa 0,0 l/m 16,1 km/h (3 Bft) W-SW 247 13,5 C 17,4 C 24,1 km/h (4 Bft) 100,00 %
02.07.2020 00:31 20,3 C 66 % 1008,8 hPa 0,0 l/m 14,5 km/h (3 Bft) W-SW 247 13,7 C 17,7 C 20,9 km/h (4 Bft) 91,30 %
02.07.2020 00:30 20,3 C 66 % 1008,7 hPa 0,0 l/m 11,3 km/h (2 Bft) W 270 13,7 C 18,6 C 16,1 km/h (3 Bft) 95,65 %
02.07.2020 00:29 20,2 C 66 % 1008,7 hPa 0,0 l/m 14,5 km/h (3 Bft) W 270 13,6 C 17,6 C 20,9 km/h (4 Bft) 91,30 %
02.07.2020 00:28 20,1 C 67 % 1008,7 hPa 0,0 l/m 16,1 km/h (3 Bft) W 270 13,8 C 17,1 C 22,5 km/h (4 Bft) 95,65 %
02.07.2020 00:27 20,1 C 67 % 1008,7 hPa 0,0 l/m 14,5 km/h (3 Bft) W 270 13,8 C 17,5 C 19,3 km/h (3 Bft) 100,00 %
02.07.2020 00:26 20,0 C 68 % 1008,6 hPa 0,0 l/m 11,3 km/h (2 Bft) W 270 13,9 C 18,2 C 19,3 km/h (3 Bft) 91,30 %
02.07.2020 00:25 20,0 C 67 % 1008,6 hPa 0,0 l/m 11,3 km/h (2 Bft) W 270 13,7 C 18,2 C 14,5 km/h (3 Bft) 100,00 %
02.07.2020 00:24 19,9 C 68 % 1008,7 hPa 0,0 l/m 14,5 km/h (3 Bft) W 270 13,8 C 17,3 C 20,9 km/h (4 Bft) 95,65 %
02.07.2020 00:23 19,9 C 69 % 1008,7 hPa 0,0 l/m 17,7 km/h (3 Bft) W 270 14,0 C 16,5 C 22,5 km/h (4 Bft) 95,65 %
02.07.2020 00:22 19,8 C 70 % 1008,8 hPa 0,0 l/m 16,1 km/h (3 Bft) W 270 14,2 C 16,7 C 20,9 km/h (4 Bft) 95,65 %
02.07.2020 00:21 19,7 C 70 % 1008,9 hPa 0,0 l/m 19,3 km/h (3 Bft) W-SW 247 14,1 C 16,0 C 25,7 km/h (4 Bft) 91,30 %
02.07.2020 00:20 19,6 C 70 % 1008,9 hPa 0,0 l/m 14,5 km/h (3 Bft) W 270 14,0 C 16,9 C 20,9 km/h (4 Bft) 100,00 %
02.07.2020 00:19 19,5 C 71 % 1009,0 hPa 0,0 l/m 16,1 km/h (3 Bft) W-SW 247 14,1 C 16,4 C 22,5 km/h (4 Bft) 91,30 %
02.07.2020 00:18 19,4 C 71 % 1009,0 hPa 0,0 l/m 17,7 km/h (3 Bft) W-SW 247 14,0 C 15,9 C 24,1 km/h (4 Bft) 100,00 %
02.07.2020 00:17 19,4 C 72 % 1009,0 hPa 0,0 l/m 14,5 km/h (3 Bft) W 270 14,2 C 16,6 C 20,9 km/h (4 Bft) 91,30 %
02.07.2020 00:16 19,3 C 72 % 1009,0 hPa 0,0 l/m 17,7 km/h (3 Bft) W-SW 247 14,1 C 15,8 C 30,6 km/h (5 Bft) 91,30 %
02.07.2020 00:15 19,2 C 73 % 1009,1 hPa 0,0 l/m 16,1 km/h (3 Bft) W 270 14,2 C 16,0 C 27,4 km/h (4 Bft) 100,00 %
02.07.2020 00:14 19,1 C 73 % 1009,0 hPa 0,0 l/m 14,5 km/h (3 Bft) W-SW 247 14,1 C 16,3 C 25,7 km/h (4 Bft) 100,00 %
02.07.2020 00:13 19,1 C 74 % 1009,0 hPa 0,0 l/m 14,5 km/h (3 Bft) W 270 14,4 C 16,3 C 25,7 km/h (4 Bft) 100,00 %
02.07.2020 00:12 19,1 C 75 % 1009,1 hPa 0,0 l/m 16,1 km/h (3 Bft) W 270 14,6 C 15,9 C 22,5 km/h (4 Bft) 91,30 %
02.07.2020 00:11 19,1 C 75 % 1009,0 hPa 0,0 l/m 14,5 km/h (3 Bft) W-SW 247 14,6 C 16,3 C 20,9 km/h (4 Bft) 95,65 %
02.07.2020 00:10 19,0 C 75 % 1009,0 hPa 0,0 l/m 16,1 km/h (3 Bft) W-SW 247 14,5 C 15,8 C 25,7 km/h (4 Bft) 95,65 %
02.07.2020 00:09 19,0 C 74 % 1009,0 hPa 0,0 l/m 17,7 km/h (3 Bft) W 270 14,3 C 15,4 C 22,5 km/h (4 Bft) 91,30 %
02.07.2020 00:08 19,0 C 74 % 1009,0 hPa 0,0 l/m 16,1 km/h (3 Bft) W-SW 247 14,3 C 15,8 C 22,5 km/h (4 Bft) 100,00 %
02.07.2020 00:07 19,0 C 74 % 1009,0 hPa 0,0 l/m 12,9 km/h (3 Bft) W 270 14,3 C 16,6 C 19,3 km/h (3 Bft) 100,00 %
02.07.2020 00:06 19,0 C 74 % 1009,0 hPa 0,0 l/m 14,5 km/h (3 Bft) SW 225 14,3 C 16,2 C 19,3 km/h (3 Bft) 100,00 %
02.07.2020 00:05 18,9 C 75 % 1009,0 hPa 0,0 l/m 14,5 km/h (3 Bft) W 270 14,4 C 16,0 C 22,5 km/h (4 Bft) 91,30 %
02.07.2020 00:04 18,9 C 75 % 1008,9 hPa 0,0 l/m 11,3 km/h (2 Bft) W-SW 247 14,4 C 17,0 C 17,7 km/h (3 Bft) 95,65 %
02.07.2020 00:03 19,0 C 75 % 1009,0 hPa 0,0 l/m 12,9 km/h (3 Bft) W 270 14,5 C 16,6 C 17,7 km/h (3 Bft) 100,00 %
02.07.2020 00:02 19,0 C 75 % 1009,0 hPa 0,0 l/m 12,9 km/h (3 Bft) W-SW 247 14,5 C 16,6 C 20,9 km/h (4 Bft) 100,00 %
02.07.2020 00:01 19,0 C 75 % 1009,0 hPa 0,0 l/m 11,3 km/h (2 Bft) W 270 14,5 C 17,1 C 19,3 km/h (3 Bft) 91,30 %
02.07.2020 00:00 18,9 C 74 % 1009,0 hPa 0,0 l/m 17,7 km/h (3 Bft) W-SW 247 14,2 C 15,3 C 27,4 km/h (4 Bft) 91,30 %
_ Min-Zeit 04:54 00:53 00:25 - 00:50 - - 00:53 06:51 01:57 01:34
Minimum _ 15,8 C 63 % 1008,6 hPa - 0,0 km/h (0 Bft) - - 13,1 C 14,4 C 0,0 km/h (0 Bft) 86,96 %
_ Max-Zeit 00:54 05:45 08:46 00:00 00:21 - - 08:41 00:54 00:16 00:02
Maximum _ 20,6 C 88 % 1012,1 hPa 0,0 l/m 19,3 km/h
W-SW (3 Bft)
- - 16,6 C 20,6 C 30,6 km/h
W-SW (5 Bft)
100,00 %
Durchschnitt _ 17,9 C 79 % 1010,2 hPa #0,0 l/m 3,9 km/h (1 Bft) SW - 14,1 C 17,6 C 7,1 km/h (2 Bft) 96,02 %